M I D A S
Marine Information and Data Acquisition System
Tripno 829 of the Zeeleeuw from 2004-10-29 06:24:00 to 2004-10-29 15:40:00
Back to CruiseResearch ActivitiesStationsMapUnderway DataData graphs

EquipmentUnitsComment
TimeDGPSUTC
LatitudeDGPSDM.mWGS84
LongitudeDGPSDM.mWGS84
TemperatureSBE03/SBE38deg celciusITS90
ConductivitySBE21S/mITS90
SalinitySBE21 Practical Salinity Units
ChlorophylAChelsea fluorimeterg/lCalibrated in Aceton
Missing or incorrect values are displayed as -999
Sea surface data collected by the RV Zeeleeuw from 2004-10-29 06:24:00 to 2004-10-29 15:40:00
                                                                                    Next 1000 lines
Time Latitude Longitude Temperature Conductivity Salinity ChlorophylA
2004-10-29 06:24:07 51°13.597 2°56.11 13.009532 3.659068 30.699263 1.51099
2004-10-29 06:24:14 51°13.597 2°56.111 12.996352 3.661491 30.719976 1.477281
2004-10-29 06:24:18 51°13.597 2°56.111 12.996692 3.657698 30.684611 1.5447
2004-10-29 06:24:24 51°13.597 2°56.111 13.004736 3.66128 30.719267 1.5447
2004-10-29 06:24:28 51°13.597 2°56.111 13.004736 3.66128 30.719267 1.5447
2004-10-29 06:24:34 51°13.596 2°56.111 13.004493 3.658225 30.691404 1.51099
2004-10-29 06:24:39 51°13.596 2°56.11 13.001974 3.655801 30.673199 1.5447
2004-10-29 06:24:42 51°13.596 2°56.11 13.005705 3.64126 30.541413 1.5447
2004-10-29 06:24:48 51°13.596 2°56.11 13.008273 3.649373 30.615157 1.51099
2004-10-29 06:24:54 51°13.596 2°56.11 13.002071 3.647266 30.593637 1.578409
2004-10-29 06:24:58 51°13.596 2°56.11 13.002071 3.647266 30.593637 1.578409
2004-10-29 06:25:04 51°13.596 2°56.108 12.998194 3.647371 30.595245 1.477281
2004-10-29 06:25:07 51°13.597 2°56.107 13.003815 3.644421 30.566499 1.443571
2004-10-29 06:25:14 51°13.597 2°56.102 12.999599 3.644105 30.563553 1.5447
2004-10-29 06:25:19 51°13.598 2°56.097 13.000617 3.641787 30.542576 1.612118
2004-10-29 06:25:24 51°13.6 2°56.091 12.999163 3.62851 30.420768 1.578409
2004-10-29 06:25:29 51°13.601 2°56.085 12.999163 3.62851 30.420768 1.578409
2004-10-29 06:25:34 51°13.603 2°56.077 12.999066 3.632409 30.457703 1.645828
2004-10-29 06:25:40 51°13.606 2°56.068 12.982297 3.60396 30.192863 1.612118
2004-10-29 06:25:44 51°13.607 2°56.061 12.970809 3.606278 30.213813 1.645828
2004-10-29 06:25:47 51°13.608 2°56.056 12.964361 3.600904 30.16567 1.612118
2004-10-29 06:25:54 51°13.611 2°56.044 12.95864 3.608701 30.238834 1.645828
2004-10-29 06:26:00 51°13.614 2°56.033 12.949087 3.599008 30.154191 1.746956
2004-10-29 06:26:03 51°13.615 2°56.028 12.949087 3.599008 30.154191 1.746956
2004-10-29 06:26:08 51°13.618 2°56.018 12.946662 3.579094 29.976349 1.848084
2004-10-29 06:26:14 51°13.62 2°56.006 12.939727 3.558128 29.790009 1.814375
2004-10-29 06:26:19 51°13.623 2°55.996 12.945014 3.53948 29.621633 1.915503
2004-10-29 06:26:24 51°13.626 2°55.986 12.943074 3.527469 29.517368 2.050341
2004-10-29 06:26:30 51°13.63 2°55.973 12.936623 3.518304 29.436503 1.881794
2004-10-29 06:26:34 51°13.632 2°55.965 12.936623 3.518304 29.436503 1.881794
2004-10-29 06:26:39 51°13.636 2°55.954 12.940067 3.509981 29.36347 1.848084
2004-10-29 06:26:44 51°13.639 2°55.944 12.934877 3.501026 29.282782 1.848084
2004-10-29 06:26:50 51°13.644 2°55.931 12.930366 3.490175 29.183333 1.848084
2004-10-29 06:26:54 51°13.647 2°55.922 12.92697 3.483222 29.120058 1.713247
2004-10-29 06:27:00 51°13.652 2°55.91 12.92697 3.483222 29.120058 1.713247
2004-10-29 06:27:02 51°13.653 2°55.905 12.926291 3.469527 28.99491 1.713247
2004-10-29 06:27:09 51°13.658 2°55.89 12.934101 3.474268 29.040029 1.746956
2004-10-29 06:27:14 51°13.662 2°55.88 12.928038 3.478482 29.080874 1.746956
2004-10-29 06:27:18 51°13.665 2°55.872 12.934829 3.472056 29.023091 1.780665
2004-10-29 06:27:22 51°13.667 2°55.863 12.938515 3.475322 29.056336 1.679537
2004-10-29 06:27:30 51°13.671 2°55.847 12.923332 3.475216 29.055359 1.746956
2004-10-29 06:27:34 51°13.674 2°55.839 12.923332 3.475216 29.055359 1.746956
2004-10-29 06:27:39 51°13.676 2°55.83 12.932452 3.478061 29.08173 1.881794
2004-10-29 06:27:42 51°13.678 2°55.824 12.933664 3.478166 29.080921 1.780665
2004-10-29 06:27:48 51°13.68 2°55.812 12.926631 3.481432 29.111797 1.915503
2004-10-29 06:27:54 51°13.683 2°55.801 12.934926 3.476375 29.066698 1.881794
2004-10-29 06:27:59 51°13.684 2°55.792 12.927359 3.473847 29.041474 1.982922
2004-10-29 06:28:02 51°13.685 2°55.786 12.927359 3.473847 29.041474 1.982922
2004-10-29 06:28:08 51°13.687 2°55.776 12.936623 3.476375 29.064912 2.016631
2004-10-29 06:28:14 51°13.688 2°55.766 12.926922 3.479009 29.091117 1.949212
2004-10-29 06:28:19 51°13.689 2°55.76 12.928959 3.480589 29.106366 2.08405
2004-10-29 06:28:22 51°13.689 2°55.758 12.934877 3.466157 28.970199 2.151469
2004-10-29 06:28:28 51°13.689 2°55.756 12.935411 3.487542 29.170255 2.151469
2004-10-29 06:28:32 51°13.69 2°55.757 12.935411 3.487542 29.170255 2.151469
2004-10-29 06:28:38 51°13.691 2°55.758 12.927892 3.482696 29.126502 2.151469
2004-10-29 06:28:44 51°13.693 2°55.76 12.920227 3.488806 29.182579 2.117759
2004-10-29 06:28:47 51°13.694 2°55.761 12.917656 3.50524 29.334489 2.151469
2004-10-29 06:28:54 51°13.696 2°55.762 12.923769 3.506926 29.348935 2.185178
2004-10-29 06:28:58 51°13.696 2°55.763 12.932403 3.503133 29.316132 2.151469
2004-10-29 06:29:04 51°13.696 2°55.762 12.932403 3.503133 29.316132 2.151469
2004-10-29 06:29:09 51°13.696 2°55.761 12.936332 3.506083 29.345919 2.151469
2004-10-29 06:29:14 51°13.695 2°55.758 12.911785 3.481642 29.123292 2.117759
2004-10-29 06:29:18 51°13.693 2°55.757 12.905332 3.459625 28.920933 2.185178
2004-10-29 06:29:24 51°13.691 2°55.753 12.909359 3.437504 28.711893 2.252597
2004-10-29 06:29:30 51°13.688 2°55.75 12.909359 3.437504 28.711893 2.252597
2004-10-29 06:29:34 51°13.686 2°55.749 12.906593 3.422651 28.572095 2.185178
2004-10-29 06:29:40 51°13.685 2°55.747 12.911543 3.387575 28.2519 2.252597
2004-10-29 06:29:44 51°13.686 2°55.747 12.912804 3.374408 28.13779 2.320016
2004-10-29 06:29:50 51°13.688 2°55.747 12.917025 3.364191 28.044028 2.218888
2004-10-29 06:29:54 51°13.69 2°55.746 12.914988 3.371564 28.109225 2.286306
2004-10-29 06:29:59 51°13.694 2°55.745 12.914988 3.371564 28.109225 2.286306
2004-10-29 06:30:04 51°13.699 2°55.743 12.935993 3.38136 28.204891 2.286306
2004-10-29 06:30:09 51°13.704 2°55.74 12.931239 3.404639 28.41891 2.185178
2004-10-29 06:30:14 51°13.709 2°55.735 12.9195 3.41907 28.551242 2.218888
2004-10-29 06:30:19 51°13.714 2°55.73 12.913775 3.451093 28.845412 2.185178
2004-10-29 06:30:24 51°13.72 2°55.725 12.91688 3.464471 28.965254 2.185178
2004-10-29 06:30:28 51°13.724 2°55.72 12.921537 3.461206 28.932615 2.185178
2004-10-29 06:30:34 51°13.732 2°55.712 12.921537 3.461206 28.932615 2.185178
2004-10-29 06:30:38 51°13.738 2°55.707 12.917074 3.448038 28.811796 2.151469
2004-10-29 06:30:44 51°13.747 2°55.698 12.936332 3.433185 28.677786 2.218888
2004-10-29 06:30:49 51°13.755 2°55.691 12.901062 3.415172 28.512843 2.185178
2004-10-29 06:30:54 51°13.763 2°55.683 12.90407 3.393263 28.30967 2.218888
2004-10-29 06:30:58 51°13.77 2°55.677 12.904167 3.399056 28.362058 2.218888
2004-10-29 06:31:04 51°13.781 2°55.669 12.904167 3.399056 28.362058 2.218888
2004-10-29 06:31:08 51°13.789 2°55.663 12.877133 3.389471 28.274047 2.218888
2004-10-29 06:31:14 51°13.801 2°55.654 12.870676 3.361348 28.016629 2.252597
2004-10-29 06:31:19 51°13.811 2°55.646 12.916831 3.320798 27.646082 2.252597
2004-10-29 06:31:24 51°13.821 2°55.638 12.923526 3.278145 27.257313 2.286306
2004-10-29 06:31:29 51°13.831 2°55.63 12.895432 3.229492 26.817925 2.286306
2004-10-29 06:31:33 51°13.84 2°55.624 12.895432 3.229492 26.817925 2.286306
2004-10-29 06:31:36 51°13.847 2°55.619 12.893636 3.191583 26.478821 2.353725
2004-10-29 06:31:42 51°13.86 2°55.609 12.909262 3.173261 26.307116 2.286306
2004-10-29 06:31:48 51°13.874 2°55.599 12.897276 3.186318 26.409451 2.252597
2004-10-29 06:31:52 51°13.883 2°55.593 12.905041 3.186844 26.419681 2.218888
2004-10-29 06:31:59 51°13.899 2°55.581 12.940212 3.218856 26.717009 2.454853
2004-10-29 06:32:04 51°13.911 2°55.572 12.940212 3.218856 26.717009 2.454853
2004-10-29 06:32:08 51°13.921 2°55.565 12.936575 3.244866 26.955277 2.320016
2004-10-29 06:32:14 51°13.936 2°55.555 12.937011 3.259294 27.08897 2.252597
2004-10-29 06:32:18 51°13.946 2°55.548 12.959028 3.262348 27.115381 2.286306
2004-10-29 06:32:24 51°13.961 2°55.539 12.955537 3.260873 27.099607 2.320016
2004-10-29 06:32:27 51°13.969 2°55.534 12.976675 3.274037 27.212847 2.387435
2004-10-29 06:32:34 51°13.986 2°55.522 12.976675 3.274037 27.212847 2.387435
2004-10-29 06:32:38 51°13.996 2°55.515 12.976529 3.293942 27.386977 2.252597
2004-10-29 06:32:42 51°14.007 2°55.508 12.973766 3.322272 27.640426 2.353725
2004-10-29 06:32:48 51°14.022 2°55.498 12.975705 3.373039 28.103851 2.454853
2004-10-29 06:32:52 51°14.032 2°55.491 12.958252 3.417278 28.503147 2.6234
2004-10-29 06:32:58 51°14.047 2°55.481 12.958252 3.417278 28.503147 2.6234
2004-10-29 06:33:03 51°14.06 2°55.471 12.968143 3.453094 28.832657 2.791947
2004-10-29 06:33:08 51°14.073 2°55.462 12.959173 3.483644 29.112047 2.926785
2004-10-29 06:33:14 51°14.089 2°55.45 12.969597 3.507452 29.333404 2.926785
2004-10-29 06:33:19 51°14.103 2°55.44 12.964507 3.518725 29.438607 2.926785
2004-10-29 06:33:22 51°14.11 2°55.433 12.962034 3.537899 29.614227 2.893076
2004-10-29 06:33:29 51°14.13 2°55.419 12.949766 3.54854 29.714912 2.724529
2004-10-29 06:33:33 51°14.141 2°55.411 12.949766 3.54854 29.714912 2.724529
2004-10-29 06:33:39 51°14.158 2°55.397 12.949184 3.564239 29.860851 2.690819
2004-10-29 06:33:44 51°14.172 2°55.385 12.944723 3.564344 29.860609 2.724529
2004-10-29 06:33:48 51°14.183 2°55.375 12.939582 3.562553 29.845175 2.690819
2004-10-29 06:33:54 51°14.199 2°55.358 12.934344 3.543905 29.674872 2.65711
2004-10-29 06:33:58 51°14.209 2°55.347 12.929929 3.550437 29.739232 2.724529
2004-10-29 06:34:04 51°14.225 2°55.328 12.929929 3.550437 29.739232 2.724529
2004-10-29 06:34:06 51°14.23 2°55.322 12.921052 3.547803 29.719006 2.522272
2004-10-29 06:34:14 51°14.249 2°55.295 12.91033 3.525573 29.515465 2.555982
2004-10-29 06:34:18 51°14.258 2°55.281 12.909068 3.531684 29.575864 2.522272
2004-10-29 06:34:23 51°14.269 2°55.262 12.907855 3.517145 29.445029 2.454853
2004-10-29 06:34:28 51°14.28 2°55.242 12.907855 3.517145 29.445029 2.454853
2004-10-29 06:34:33 51°14.29 2°55.223 12.904216 3.492493 29.22337 2.387435
2004-10-29 06:34:38 51°14.301 2°55.203 12.903245 3.501553 29.312869 2.320016
2004-10-29 06:34:42 51°14.31 2°55.187 12.901935 3.508296 29.379699 2.218888
2004-10-29 06:34:48 51°14.323 2°55.163 12.902517 3.509455 29.393476 2.185178
2004-10-29 06:34:54 51°14.336 2°55.139 12.9031 3.510614 29.406052 2.151469
2004-10-29 06:34:59 51°14.347 2°55.12 12.922702 3.509771 29.398823 2.117759
2004-10-29 06:35:04 51°14.358 2°55.101 12.922702 3.509771 29.398823 2.117759
2004-10-29 06:35:06 51°14.363 2°55.093 12.92241 3.503555 29.344684 2.08405
2004-10-29 06:35:14 51°14.382 2°55.064 12.945547 3.502818 29.338434 2.185178
2004-10-29 06:35:19 51°14.395 2°55.047 12.994269 3.511456 29.418104 2.050341
2004-10-29 06:35:24 51°14.408 2°55.031 13.006335 3.521254 29.501924 2.117759
2004-10-29 06:35:26 51°14.414 2°55.025 13.006335 3.521254 29.501924 2.117759
2004-10-29 06:35:33 51°14.433 2°55 12.987047 3.548646 29.751817 2.016631
2004-10-29 06:35:38 51°14.448 2°54.982 12.969161 3.565293 29.896961 2.050341
2004-10-29 06:35:42 51°14.459 2°54.967 12.966785 3.576145 29.980802 1.949212
2004-10-29 06:35:48 51°14.476 2°54.944 12.965234 3.583414 30.028188 1.915503
2004-10-29 06:35:54 51°14.492 2°54.919 12.959173 3.625876 30.418623 2.016631
2004-10-29 06:35:59 51°14.505 2°54.898 12.959464 3.65675 30.715322 1.982922
2004-10-29 06:36:04 51°14.518 2°54.877 12.959464 3.65675 30.715322 1.982922
2004-10-29 06:36:09 51°14.531 2°54.857 12.949815 3.682778 30.961565 1.982922
2004-10-29 06:36:14 51°14.545 2°54.836 12.951124 3.714707 31.263359 2.050341
2004-10-29 06:36:18 51°14.556 2°54.82 12.978953 3.743899 31.539306 2.117759
2004-10-29 06:36:23 51°14.57 2°54.8 12.991894 3.765081 31.741803 2.218888
2004-10-29 06:36:27 51°14.581 2°54.784 13.012197 3.779098 31.877247 2.117759
2004-10-29 06:36:34 51°14.601 2°54.756 13.012197 3.779098 31.877247 2.117759
2004-10-29 06:36:38 51°14.613 2°54.74 13.030218 3.778044 31.869313 2.252597
2004-10-29 06:36:44 51°14.629 2°54.715 13.032882 3.794485 32.017146 2.151469
2004-10-29 06:36:48 51°14.64 2°54.699 13.038742 3.832005 32.35722 2.218888
2004-10-29 06:36:54 51°14.657 2°54.675 13.063341 3.864363 32.64965 2.08405
2004-10-29 06:36:58 51°14.668 2°54.659 13.07433 3.865417 32.6462 2.117759
2004-10-29 06:37:04 51°14.686 2°54.637 13.07433 3.865417 32.6462 2.117759
2004-10-29 06:37:08 51°14.698 2°54.622 13.07554 3.905892 33.015182 2.016631
2004-10-29 06:37:14 51°14.716 2°54.601 13.075201 3.921492 33.154741 2.050341
2004-10-29 06:37:18 51°14.728 2°54.587 13.110479 3.928132 33.207148 2.08405
2004-10-29 06:37:23 51°14.744 2°54.571 13.109898 3.940254 33.312569 2.08405
2004-10-29 06:37:29 51°14.763 2°54.552 13.109898 3.940254 33.312569 2.08405
2004-10-29 06:37:34 51°14.78 2°54.538 13.112559 3.945314 33.348679 2.151469
2004-10-29 06:37:38 51°14.793 2°54.527 13.136261 3.949319 33.374158 2.050341
2004-10-29 06:37:44 51°14.812 2°54.51 13.119332 3.952798 33.400117 2.117759
2004-10-29 06:37:47 51°14.822 2°54.502 13.146416 3.927394 33.147992 2.117759
2004-10-29 06:37:54 51°14.845 2°54.483 13.133649 3.962285 33.471072 1.949212
2004-10-29 06:37:58 51°14.858 2°54.471 13.133649 3.962285 33.471072 1.949212
2004-10-29 06:38:04 51°14.877 2°54.454 13.124604 3.962706 33.467529 1.848084
2004-10-29 06:38:08 51°14.89 2°54.442 13.131666 3.971034 33.541878 1.915503
2004-10-29 06:38:14 51°14.909 2°54.423 13.132246 3.972088 33.543595 1.915503
2004-10-29 06:38:19 51°14.924 2°54.407 13.139211 3.981154 33.628322 1.881794
2004-10-29 06:38:23 51°14.936 2°54.394 13.141532 3.97757 33.596607 1.780665
2004-10-29 06:38:27 51°14.948 2°54.382 13.150187 3.978624 33.608597 1.780665
2004-10-29 06:38:36 51°14.975 2°54.353 13.159857 3.985265 33.669814 1.713247
2004-10-29 06:38:39 51°14.984 2°54.345 13.159857 3.985265 33.669814 1.713247
2004-10-29 06:38:46 51°15.006 2°54.325 13.182817 3.989903 33.710097 1.814375
2004-10-29 06:38:51 51°15.022 2°54.313 13.18678 3.979362 33.609378 1.679537
2004-10-29 06:38:55 51°15.034 2°54.304 13.19427 3.992433 33.727065 1.5447
2004-10-29 06:39:04 51°15.064 2°54.284 13.193594 3.994225 33.722631 1.578409
2004-10-29 06:39:10 51°15.083 2°54.272 13.193594 3.994225 33.722631 1.578409
2004-10-29 06:39:14 51°15.096 2°54.263 13.190066 3.988532 33.655979 1.612118
2004-10-29 06:39:19 51°15.112 2°54.251 13.193787 3.997704 33.739584 1.578409
2004-10-29 06:39:25 51°15.131 2°54.236 13.18997 3.997282 33.732864 1.645828
2004-10-29 06:39:30 51°15.146 2°54.221 13.182624 3.993171 33.690038 1.409862
2004-10-29 06:39:34 51°15.158 2°54.207 13.182624 4.000023 33.755235 1.443571
2004-10-29 06:39:40 51°15.175 2°54.186 13.182624 4.000023 33.755235 1.443571
2004-10-29 06:39:45 51°15.189 2°54.167 13.182962 3.995279 33.706452 1.645828
2004-10-29 06:39:50 51°15.203 2°54.147 13.18736 3.997177 33.729123 1.578409
2004-10-29 06:39:55 51°15.216 2°54.127 13.194319 4.003923 33.797473 1.578409
2004-10-29 06:39:58 51°15.224 2°54.115 13.203403 3.988638 33.653542 1.578409
2004-10-29 06:40:05 51°15.243 2°54.087 13.216688 4.007824 33.837663 1.51099
2004-10-29 06:40:10 51°15.257 2°54.069 13.216688 4.007824 33.837663 1.51099
2004-10-29 06:40:14 51°15.269 2°54.055 13.239243 3.997809 33.74264 1.5447
2004-10-29 06:40:20 51°15.288 2°54.035 13.25648 3.989797 33.662401 1.612118
2004-10-29 06:40:24 51°15.301 2°54.023 13.25817 4.005715 33.8054 1.679537
2004-10-29 06:40:30 51°15.32 2°54.007 13.270575 4.004556 33.786222 1.713247
2004-10-29 06:40:35 51°15.337 2°53.994 13.270575 4.004556 33.786222 1.713247
2004-10-29 06:40:38 51°15.347 2°53.986 13.287274 4.0132 33.856587 1.5447
2004-10-29 06:40:44 51°15.367 2°53.971 13.282834 4.010142 33.810601 1.477281
2004-10-29 06:40:50 51°15.387 2°53.955 13.287419 3.997598 33.683694 1.578409
2004-10-29 06:40:59 51°15.416 2°53.929 13.296104 4.020684 33.882925 1.477281
2004-10-29 06:41:04 51°15.432 2°53.914 13.296104 4.020684 33.882925 1.477281
2004-10-29 06:41:10 51°15.452 2°53.895 13.304837 4.022582 33.889063 1.578409
2004-10-29 06:41:14 51°15.464 2°53.881 13.310674 4.023214 33.892944 1.612118
2004-10-29 06:41:20 51°15.483 2°53.861 13.316077 4.027642 33.93182 1.612118
2004-10-29 06:41:24 51°15.496 2°53.848 13.320514 4.029328 33.943544 1.5447
2004-10-29 06:41:30 51°15.515 2°53.828 13.327074 4.030277 33.946949 1.645828
2004-10-29 06:41:35 51°15.531 2°53.811 13.33151 4.031858 33.956989 1.578409
2004-10-29 06:41:38 51°15.541 2°53.802 13.33151 4.031858 33.956989 1.578409
2004-10-29 06:41:44 51°15.56 2°53.782 13.337635 4.031964 33.953843 1.477281
2004-10-29 06:41:50 51°15.58 2°53.763 13.342794 4.032174 33.948932 1.679537
2004-10-29 06:41:54 51°15.593 2°53.751 13.34805 4.015518 33.788338 1.5447
2004-10-29 06:42:00 51°15.613 2°53.732 13.353787 4.03597 33.976325 1.679537
2004-10-29 06:42:03 51°15.623 2°53.722 13.357161 4.026376 33.88207 1.51099
2004-10-29 06:42:10 51°15.646 2°53.7 13.357161 4.026376 33.88207 1.51099
2004-10-29 06:42:14 51°15.659 2°53.687 13.360391 4.025638 33.869642 1.578409
2004-10-29 06:42:19 51°15.676 2°53.672 13.36338 4.036707 33.965339 1.51099
2004-10-29 06:42:24 51°15.692 2°53.655 13.36738 4.015518 33.766411 1.645828
2004-10-29 06:42:30 51°15.712 2°53.636 13.370513 4.039026 33.979543 1.814375
2004-10-29 06:42:34 51°15.725 2°53.623 13.371525 4.03502 33.937797 1.780665
2004-10-29 06:42:40 51°15.745 2°53.603 13.371525 4.03502 33.937797 1.780665
2004-10-29 06:42:44 51°15.758 2°53.59 13.373309 4.040186 33.98561 1.713247
2004-10-29 06:42:50 51°15.778 2°53.571 13.374803 4.012038 33.719409 1.780665
2004-10-29 06:42:54 51°15.791 2°53.558 13.375622 4.029327 33.878864 1.713247
2004-10-29 06:43:00 51°15.811 2°53.538 13.375381 4.041029 33.984573 1.679537
2004-10-29 06:43:04 51°15.824 2°53.525 13.375381 4.041029 33.984573 1.679537
2004-10-29 06:43:10 51°15.844 2°53.506 13.374514 4.040502 33.978247 1.713247
2004-10-29 06:43:12 51°15.851 2°53.5 13.374417 4.04008 33.972223 1.848084
2004-10-29 06:43:19 51°15.874 2°53.478 13.372104 4.039975 33.971234 1.881794
2004-10-29 06:43:24 51°15.891 2°53.463 13.373261 4.039975 33.969857 1.881794
2004-10-29 06:43:30 51°15.911 2°53.446 13.369116 4.023213 33.810528 1.814375
2004-10-29 06:43:35 51°15.928 2°53.432 13.368875 4.032385 33.901372 1.814375
2004-10-29 06:43:40 51°15.945 2°53.419 13.368875 4.032385 33.901372 1.814375
2004-10-29 06:43:44 51°15.959 2°53.408 13.365549 4.03987 33.969556 1.780665
2004-10-29 06:43:50 51°15.98 2°53.393 13.363669 4.035864 33.932645 1.848084
2004-10-29 06:43:54 51°15.993 2°53.382 13.363139 4.039237 33.964307 1.949212
2004-10-29 06:44:00 51°16.014 2°53.366 13.360873 4.039448 33.966286 1.881794
2004-10-29 06:44:03 51°16.024 2°53.358 13.358849 4.021421 33.799883 2.387435
2004-10-29 06:44:10 51°16.048 2°53.338 13.358849 4.021421 33.799883 2.387435
2004-10-29 06:44:14 51°16.062 2°53.327 13.358463 4.041767 33.990812 1.949212
2004-10-29 06:44:20 51°16.082 2°53.31 13.357499 4.040924 33.98565 1.982922
2004-10-29 06:44:24 51°16.096 2°53.299 13.35721 4.035969 33.942576 1.982922
2004-10-29 06:44:30 51°16.117 2°53.283 13.354028 4.038078 33.963747 1.915503
2004-10-29 06:44:35 51°16.134 2°53.271 13.35692 4.031541 33.90239 1.949212
2004-10-29 06:44:40 51°16.151 2°53.258 13.35692 4.031541 33.90239 1.949212
2004-10-29 06:44:44 51°16.165 2°53.247 13.353787 4.027219 33.862511 1.949212
2004-10-29 06:44:50 51°16.185 2°53.232 13.353112 4.034282 33.930869 1.915503
2004-10-29 06:44:54 51°16.199 2°53.221 13.354751 4.034282 33.930869 2.016631
2004-10-29 06:44:59 51°16.216 2°53.207 13.353594 4.041557 33.999858 1.881794
2004-10-29 06:45:04 51°16.233 2°53.193 13.354751 4.033334 33.926089 1.881794
2004-10-29 06:45:10 51°16.253 2°53.177 13.354751 4.033334 33.926089 1.881794
2004-10-29 06:45:15 51°16.27 2°53.163 13.356197 4.035758 33.948855 1.949212
2004-10-29 06:45:18 51°16.28 2°53.155 13.358559 4.037445 33.964693 1.982922
2004-10-29 06:45:23 51°16.297 2°53.141 13.359282 4.040924 33.995296 2.185178
2004-10-29 06:45:30 51°16.32 2°53.122 13.358463 4.042505 34.012216 2.117759
2004-10-29 06:45:35 51°16.338 2°53.109 13.358318 4.04377 34.021339 1.949212
2004-10-29 06:45:38 51°16.348 2°53.1 13.358318 4.04377 34.021339 1.949212
2004-10-29 06:45:44 51°16.368 2°53.084 13.358849 4.035864 33.948468 2.08405
2004-10-29 06:45:50 51°16.389 2°53.068 13.357981 4.044508 34.02551 2.252597
2004-10-29 06:45:54 51°16.402 2°53.057 13.359379 4.040186 33.986299 2.08405
2004-10-29 06:46:00 51°16.422 2°53.041 13.358077 4.045879 34.040452 2.252597
2004-10-29 06:46:04 51°16.436 2°53.031 13.358077 4.045879 34.040452 2.252597
2004-10-29 06:46:10 51°16.456 2°53.014 13.359234 4.041978 34.00175 2.117759
2004-10-29 06:46:15 51°16.473 2°53.001 13.359764 4.045773 34.038082 2.252597
2004-10-29 06:46:20 51°16.49 2°52.988 13.359957 4.042084 34.004118 2.252597
2004-10-29 06:46:24 51°16.504 2°52.977 13.356968 4.039659 33.981349 2.185178
2004-10-29 06:46:30 51°16.524 2°52.961 13.356004 4.045984 34.039372 2.286306
2004-10-29 06:46:35 51°16.541 2°52.947 13.35639 4.046301 34.040272 2.353725
2004-10-29 06:46:40 51°16.558 2°52.934 13.35639 4.046301 34.040272 2.353725
2004-10-29 06:46:42 51°16.565 2°52.929 13.355619 4.045036 34.030461 2.320016
2004-10-29 06:46:50 51°16.592 2°52.907 13.355185 4.044508 34.0262 2.387435
2004-10-29 06:46:55 51°16.608 2°52.894 13.354896 4.043665 34.018279 2.320016
2004-10-29 06:46:58 51°16.618 2°52.886 13.353064 4.042822 34.012428 2.353725
2004-10-29 06:47:04 51°16.639 2°52.87 13.350701 4.04356 34.021428 2.454853
2004-10-29 06:47:10 51°16.659 2°52.854 13.350701 4.04356 34.021428 2.454853
2004-10-29 06:47:15 51°16.676 2°52.841 13.350075 4.044719 34.03025 2.387435
2004-10-29 06:47:19 51°16.689 2°52.831 13.351135 4.045352 34.035501 2.421144
2004-10-29 06:47:25 51°16.71 2°52.816 13.347616 4.045563 34.039552 2.353725
2004-10-29 06:47:30 51°16.726 2°52.803 13.349544 4.045563 34.040932 2.387435
2004-10-29 06:47:34 51°16.74 2°52.794 13.348242 4.044087 34.027759 2.589691
2004-10-29 06:47:46 51°16.78 2°52.765 13.348821 4.045457 34.039942 2.387435
2004-10-29 06:47:52 51°16.8 2°52.751 13.348821 4.045457 34.039942 2.387435
2004-10-29 06:47:58 51°16.819 2°52.736 13.351569 4.046195 34.049636 2.387435
2004-10-29 06:48:02 51°16.832 2°52.726 13.347857 4.044825 34.036761 2.353725
2004-10-29 06:48:08 51°16.851 2°52.711 13.346507 4.043349 34.022207 2.185178
2004-10-29 06:48:12 51°16.864 2°52.701 13.346025 4.045984 34.047655 2.353725
2004-10-29 06:48:18 51°16.884 2°52.685 13.346217 4.045563 34.041622 2.117759
2004-10-29 06:48:22 51°16.897 2°52.674 13.343855 4.044825 34.036761 2.320016
2004-10-29 06:48:27 51°16.913 2°52.661 13.343855 4.044825 34.036761 2.320016
2004-10-29 06:48:32 51°16.929 2°52.648 13.342891 4.045457 34.043393 2.252597
2004-10-29 06:48:38 51°16.948 2°52.632 13.340721 4.04609 34.050026 2.454853
2004-10-29 06:48:43 51°16.965 2°52.619 13.343276 4.019734 33.805984 2.555982
2004-10-29 06:48:46 51°16.975 2°52.611 13.341107 4.046195 34.052398 2.286306
2004-10-29 06:48:50 51°16.988 2°52.601 13.339564 4.043665 34.031388 2.454853
2004-10-29 06:49:02 51°17.029 2°52.571 13.340528 4.037762 33.976619 2.353725
2004-10-29 06:49:06 51°17.042 2°52.561 13.336574 4.045774 34.051198 2.454853
2004-10-29 06:49:12 51°17.062 2°52.547 13.335224 4.04356 34.029708 2.421144
2004-10-29 06:49:16 51°17.075 2°52.537 13.333584 4.046617 34.058432 2.454853
2004-10-29 06:49:22 51°17.095 2°52.522 13.333584 4.046617 34.058432 2.454853
2004-10-29 06:49:26 51°17.108 2°52.512 13.3318 4.037867 33.97692 2.555982
2004-10-29 06:49:31 51°17.125 2°52.499 13.330787 4.045457 34.050299 2.555982
2004-10-29 06:49:36 51°17.141 2°52.485 13.330112 4.043876 34.038202 2.522272
2004-10-29 06:49:42 51°17.161 2°52.469 13.327749 4.045247 34.052462 2.522272
2004-10-29 06:49:44 51°17.168 2°52.464 13.32664 4.042189 34.025114 2.522272
2004-10-29 06:49:52 51°17.194 2°52.442 13.32664 4.042189 34.025114 2.522272
2004-10-29 06:49:56 51°17.207 2°52.431 13.325868 4.045458 34.057898 2.488563
2004-10-29 06:50:02 51°17.227 2°52.416 13.32582 4.045774 34.061561 2.6234
2004-10-29 06:50:06 51°17.24 2°52.405 13.324614 4.044614 34.051353 2.589691
2004-10-29 06:50:12 51°17.261 2°52.39 13.328086 4.045668 34.065409 2.825657
2004-10-29 06:50:14 51°17.268 2°52.385 13.328086 4.045668 34.065409 2.825657
2004-10-29 06:50:22 51°17.295 2°52.365 13.325627 4.045985 34.066999 2.690819
2004-10-29 06:50:27 51°17.312 2°52.352 13.327363 4.045879 34.066008 2.825657
2004-10-29 06:50:32 51°17.329 2°52.339 13.325337 4.045563 34.063035 2.65711
2004-10-29 06:50:36 51°17.342 2°52.328 13.329437 4.045563 34.063035 2.893076
2004-10-29 06:50:41 51°17.359 2°52.315 13.324759 4.044087 34.049162 2.859366
2004-10-29 06:50:46 51°17.376 2°52.302 13.325048 4.045563 34.063035 2.758238
2004-10-29 06:50:51 51°17.393 2°52.289 13.325048 4.045563 34.063035 2.758238
2004-10-29 06:51:02 51°17.43 2°52.261 13.324566 4.045141 34.059071 2.65711
2004-10-29 06:51:10 51°17.457 2°52.241 13.324566 4.045141 34.059071 2.65711
2004-10-29 06:51:15 51°17.474 2°52.229 13.327122 4.043349 34.04499 2.859366
2004-10-29 06:51:20 51°17.491 2°52.216 13.327411 4.045668 34.065409 2.893076
2004-10-29 06:51:24 51°17.505 2°52.206 13.327363 4.046512 34.071262 2.690819
2004-10-29 06:51:30 51°17.525 2°52.192 13.330257 4.040819 34.019138 2.65711
2004-10-29 06:51:34 51°17.538 2°52.182 13.329581 4.0385 33.995962 2.6234
2004-10-29 06:51:39 51°17.556 2°52.169 13.329581 4.0385 33.995962 2.6234
2004-10-29 06:51:44 51°17.572 2°52.156 13.330401 4.046301 34.067898 2.724529
2004-10-29 06:51:49 51°17.589 2°52.143 13.333005 4.046617 34.072253 2.555982
2004-10-29 06:51:54 51°17.606 2°52.13 13.336043 4.041768 34.023912 2.758238
2004-10-29 06:52:00 51°17.626 2°52.114 13.337394 4.048409 34.087025 2.6234
2004-10-29 06:52:03 51°17.636 2°52.107 13.342649 4.030487 33.917247 3.263879
2004-10-29 06:52:16 51°17.68 2°52.074 13.343325 4.026271 33.87833 2.724529
2004-10-29 06:52:22 51°17.7 2°52.059 13.346603 4.048515 34.085942 2.960494
2004-10-29 06:52:27 51°17.717 2°52.046 13.350605 4.039238 33.995309 2.825657
2004-10-29 06:52:32 51°17.734 2°52.034 13.351665 4.033123 33.93856 2.825657
2004-10-29 06:52:36 51°17.747 2°52.023 13.352678 4.048831 34.082691 2.859366
2004-10-29 06:52:42 51°17.767 2°52.008 13.35692 4.042506 34.019804 2.791947
2004-10-29 06:52:47 51°17.784 2°51.995 13.357836 4.049253 34.080432 2.65711
2004-10-29 06:52:51 51°17.797 2°51.985 13.357836 4.049253 34.080432 2.65711
2004-10-29 06:52:56 51°17.814 2°51.972 13.358559 4.049885 34.084993 2.758238
2004-10-29 06:53:02 51°17.834 2°51.957 13.362126 4.049569 34.079948 2.825657
2004-10-29 06:53:06 51°17.848 2°51.947 13.360921 4.049885 34.082229 2.825657
2004-10-29 06:53:11 51°17.865 2°51.934 13.362994 4.04978 34.078474 3.027913
2004-10-29 06:53:15 51°17.878 2°51.924 13.363814 4.048515 34.065208 2.690819
2004-10-29 06:53:22 51°17.902 2°51.907 13.363814 4.048515 34.065208 2.690819
2004-10-29 06:53:26 51°17.915 2°51.897 13.365308 4.051994 34.095126 2.65711
2004-10-29 06:53:32 51°17.936 2°51.881 13.364778 4.04862 34.063436 2.724529
2004-10-29 06:53:34 51°17.942 2°51.876 13.364826 4.049147 34.067006 2.758238
2004-10-29 06:53:43 51°17.973 2°51.852 13.36632 4.050201 34.076218 2.724529
2004-10-29 06:53:48 51°17.989 2°51.839 13.367188 4.051045 34.082758 2.825657
2004-10-29 06:53:54 51°18.01 2°51.823 13.367091 4.052099 34.090587 2.893076
2004-10-29 06:53:58 51°18.023 2°51.812 13.367236 4.052099 34.090587 2.926785
2004-10-29 06:54:03 51°18.04 2°51.799 13.367236 4.052099 34.090587 2.926785
2004-10-29 06:54:08 51°18.057 2°51.786 13.367284 4.053469 34.104152 2.825657
2004-10-29 06:54:11 51°18.067 2°51.778 13.367477 4.052626 34.094847 3.061623
2004-10-29 06:54:24 51°18.111 2°51.744 13.368152 4.046828 34.038322 2.926785
2004-10-29 06:54:30 51°18.132 2°51.728 13.369357 4.051888 34.087916 3.162751
2004-10-29 06:54:35 51°18.149 2°51.715 13.366416 4.048936 34.058812 3.061623
2004-10-29 06:54:40 51°18.166 2°51.701 13.366416 4.048936 34.058812 3.061623
2004-10-29 06:54:44 51°18.18 2°51.691 13.366561 4.050728 34.074952 2.859366
2004-10-29 06:54:50 51°18.201 2°51.675 13.367911 4.053048 34.096735 2.893076
2004-10-29 06:54:54 51°18.215 2°51.664 13.366416 4.049042 34.059112 3.398717
2004-10-29 06:55:00 51°18.235 2°51.648 13.36632 4.049779 34.066042 3.129042
2004-10-29 06:55:04 51°18.249 2°51.638 13.368296 4.031647 33.896508 3.19646
2004-10-29 06:55:10 51°18.27 2°51.622 13.368296 4.031647 33.896508 3.19646
2004-10-29 06:55:15 51°18.287 2°51.609 13.36685 4.043981 34.011597 3.23017
2004-10-29 06:55:20 51°18.304 2°51.596 13.368875 4.051255 34.081284 3.027913
2004-10-29 06:55:24 51°18.318 2°51.585 13.371959 4.049674 34.066432 3.297589
2004-10-29 06:55:30 51°18.338 2°51.569 13.371959 4.052942 34.097127 3.331298
2004-10-29 06:55:34 51°18.352 2°51.558 13.374947 4.051361 34.082274 3.432426
2004-10-29 06:55:39 51°18.369 2°51.545 13.374947 4.051361 34.082274 3.432426
2004-10-29 06:55:52 51°18.413 2°51.51 13.378369 4.047882 34.044082 3.297589
2004-10-29 06:55:54 51°18.42 2°51.504 13.378369 4.047882 34.044082 3.297589
2004-10-29 06:56:03 51°18.451 2°51.48 13.380008 4.05252 34.087639 2.893076
2004-10-29 06:56:07 51°18.464 2°51.469 13.382273 4.047776 34.043092 3.398717
2004-10-29 06:56:12 51°18.481 2°51.455 13.384586 4.05484 34.107347 3.23017
2004-10-29 06:56:18 51°18.502 2°51.439 13.385935 4.053258 34.091806 3.297589
2004-10-29 06:56:23 51°18.519 2°51.425 13.386706 4.050623 34.064297 3.162751
2004-10-29 06:56:28 51°18.536 2°51.412 13.386706 4.050623 34.064297 3.162751
2004-10-29 06:56:30 51°18.542 2°51.407 13.388537 4.053785 34.093302 2.994204
2004-10-29 06:56:36 51°18.563 2°51.39 13.390994 4.0463 34.020962 3.162751
2004-10-29 06:56:42 51°18.583 2°51.374 13.392151 4.054734 34.098756 3.19646
2004-10-29 06:56:48 51°18.603 2°51.358 13.395668 4.055683 34.106974 2.994204
2004-10-29 06:56:50 51°18.61 2°51.353 13.395475 4.044403 33.999708 2.926785
2004-10-29 06:56:58 51°18.638 2°51.332 13.395475 4.044403 33.999708 2.926785
2004-10-29 06:57:02 51°18.651 2°51.321 13.396005 4.047882 34.030291 3.027913
2004-10-29 06:57:06 51°18.665 2°51.31 13.397258 4.053891 34.086004 3.027913
2004-10-29 06:57:12 51°18.685 2°51.294 13.398751 4.052626 34.072059 3.027913
2004-10-29 06:57:18 51°18.705 2°51.278 13.398655 4.051044 34.053768 2.960494
2004-10-29 06:57:22 51°18.719 2°51.267 13.398607 4.051044 34.057216 2.926785
2004-10-29 06:57:28 51°18.739 2°51.251 13.398607 4.051044 34.057216 2.926785
2004-10-29 06:57:39 51°18.776 2°51.222 13.40328 4.056737 34.105819 2.893076
2004-10-29 06:57:46 51°18.8 2°51.203 13.40328 4.056737 34.105819 2.893076
2004-10-29 06:57:50 51°18.813 2°51.192 13.403328 4.054418 34.083359 2.825657
2004-10-29 06:57:56 51°18.834 2°51.176 13.404051 4.055788 34.096913 2.893076
2004-10-29 06:57:58 51°18.84 2°51.171 13.404484 4.055788 34.096222 2.859366
2004-10-29 06:58:06 51°18.867 2°51.149 13.406411 4.043454 33.978416 3.095332
2004-10-29 06:58:10 51°18.881 2°51.138 13.407134 4.055261 34.087824 3.061623
2004-10-29 06:58:16 51°18.901 2°51.122 13.407134 4.055261 34.087824 3.061623
2004-10-29 06:58:20 51°18.914 2°51.111 13.406845 4.052836 34.064379 2.825657
2004-10-29 06:58:24 51°18.928 2°51.1 13.406315 4.04999 34.035603 2.893076
2004-10-29 06:58:31 51°18.951 2°51.081 13.408049 4.041345 33.957263 2.926785
2004-10-29 06:58:36 51°18.968 2°51.068 13.406411 4.056737 34.099604 3.19646
2004-10-29 06:58:40 51°18.982 2°51.057 13.410409 4.055577 34.088031 3.162751
2004-10-29 06:58:46 51°19.002 2°51.041 13.410409 4.055577 34.088031 3.162751
2004-10-29 06:58:50 51°19.016 2°51.03 13.406652 4.055367 34.086052 2.859366
2004-10-29 06:58:56 51°19.036 2°51.014 13.406315 4.055999 34.091988 3.129042
2004-10-29 06:59:00 51°19.049 2°51.003 13.403424 4.05758 34.104757 3.061623
2004-10-29 06:59:06 51°19.069 2°50.987 13.401353 4.05368 34.066086 2.893076
2004-10-29 06:59:10 51°19.083 2°50.976 13.401353 4.05368 34.066086 2.893076
2004-10-29 06:59:16 51°19.103 2°50.96 13.400678 4.054101 34.072112 3.23017
2004-10-29 06:59:21 51°19.12 2°50.946 13.397354 4.049041 34.026013 3.365007
2004-10-29 06:59:26 51°19.137 2°50.932 13.392536 4.053785 34.071903 2.960494
2004-10-29 06:59:28 51°19.143 2°50.927 13.395331 4.058213 34.114837 3.129042
2004-10-29 06:59:38 51°19.177 2°50.9 13.386561 4.051255 34.049541 3.162751
2004-10-29 06:59:48 51°19.211 2°50.873 13.383718 4.056421 34.104231 3.398717
2004-10-29 06:59:54 51°19.231 2°50.856 13.381405 4.053364 34.074845 3.398717
2004-10-29 06:59:59 51°19.248 2°50.843 13.379863 4.057159 34.113231 3.365007
2004-10-29 07:00:10 51°19.285 2°50.814 13.373405 4.02627 33.826867 3.297589
2004-10-29 07:00:16 51°19.306 2°50.798 13.373742 4.049463 34.047201 3.398717
2004-10-29 07:00:22 51°19.326 2°50.781 13.373742 4.049463 34.047201 3.398717
2004-10-29 07:00:27 51°19.343 2°50.767 13.369453 4.052837 34.083702 3.432426
2004-10-29 07:00:30 51°19.353 2°50.759 13.369839 4.054734 34.10152 3.365007
2004-10-29 07:00:36 51°19.373 2°50.743 13.369357 4.052731 34.084784 3.668392
2004-10-29 07:00:40 51°19.386 2°50.732 13.366898 4.050201 34.063098 3.735811
2004-10-29 07:00:47 51°19.41 2°50.714 13.365838 4.043981 34.006083 3.668392
2004-10-29 07:00:50 51°19.42 2°50.706 13.365838 4.043981 34.006083 3.668392
2004-10-29 07:00:58 51°19.447 2°50.685 13.364392 4.049041 34.057041 3.735811
2004-10-29 07:01:02 51°19.461 2°50.674 13.36015 4.049569 34.062681 3.634683
2004-10-29 07:01:07 51°19.477 2°50.661 13.360054 4.039343 33.968738 3.80323
2004-10-29 07:01:10 51°19.487 2°50.653 13.359523 4.044087 34.013965 3.634683
2004-10-29 07:01:15 51°19.504 2°50.64 13.356968 4.049674 34.067123 3.702101
2004-10-29 07:01:22 51°19.528 2°50.621 13.356968 4.049674 34.067123 3.702101
2004-10-29 07:01:26 51°19.542 2°50.611 13.354896 4.038815 33.967232 3.668392
2004-10-29 07:01:31 51°19.559 2°50.598 13.356486 4.052099 34.09266 3.971777
2004-10-29 07:01:36 51°19.576 2°50.585 13.353112 4.052837 34.100975 3.499845
2004-10-29 07:01:42 51°19.596 2°50.569 13.353931 4.052415 34.10047 3.836939
2004-10-29 07:01:46 51°19.609 2°50.558 13.355281 4.052415 34.101161 3.870648
2004-10-29 07:01:51 51°19.626 2°50.545 13.355281 4.052415 34.101161 3.870648
2004-10-29 07:01:56 51°19.643 2°50.531 13.355715 4.042295 34.00472 3.600973
2004-10-29 07:02:02 51°19.663 2°50.515 13.35721 4.041767 34.001148 3.702101
2004-10-29 07:02:07 51°19.68 2°50.501 13.355233 4.051994 34.098582 3.668392
2004-10-29 07:02:11 51°19.694 2°50.491 13.35639 4.037972 33.9662 3.668392
2004-10-29 07:02:15 51°19.708 2°50.48 13.352967 4.051994 34.098582 3.836939
2004-10-29 07:02:28 51°19.753 2°50.444 13.354847 4.050518 34.083334 3.668392
2004-10-29 07:02:32 51°19.766 2°50.433 13.355137 4.052204 34.101254 3.80323
2004-10-29 07:02:38 51°19.787 2°50.417 13.358366 4.040713 33.992627 3.80323
2004-10-29 07:02:43 51°19.804 2°50.404 13.35586 4.050623 34.085015 3.668392
2004-10-29 07:02:47 51°19.818 2°50.393 13.358318 4.029117 33.885814 3.331298
2004-10-29 07:02:51 51°19.832 2°50.382 13.358318 4.029117 33.885814 3.331298
2004-10-29 07:02:58 51°19.856 2°50.363 13.358704 4.05347 34.113141 3.466136
2004-10-29 07:03:02 51°19.87 2°50.352 13.3615 4.051045 34.087595 3.76952
2004-10-29 07:03:07 51°19.887 2°50.338 13.362078 4.049885 34.077392 3.634683
2004-10-29 07:03:12 51°19.904 2°50.325 13.362367 4.038499 33.968394 3.533554
2004-10-29 07:03:18 51°19.925 2°50.308 13.366754 4.048304 34.061846 3.938067
2004-10-29 07:03:23 51°19.942 2°50.295 13.369453 4.051256 34.089575 3.76952
2004-10-29 07:03:28 51°19.959 2°50.281 13.369453 4.051256 34.089575 3.76952
2004-10-29 07:03:33 51°19.976 2°50.268 13.371284 4.050939 34.085222 3.668392
2004-10-29 07:03:38 51°19.994 2°50.254 13.374562 4.03249 33.909921 3.600973
2004-10-29 07:03:43 51°20.011 2°50.241 13.376297 4.043665 34.013453 3.938067
2004-10-29 07:03:48 51°20.028 2°50.227 13.378658 4.051677 34.087317 3.567264
2004-10-29 07:03:58 51°20.062 2°50.2 13.382899 4.037445 33.94955 3.668392
2004-10-29 07:04:02 51°20.076 2°50.189 13.383381 4.04999 34.067331 3.600973
2004-10-29 07:04:06 51°20.089 2°50.179 13.387332 4.051677 34.0811 3.702101
2004-10-29 07:04:12 51°20.11 2°50.163 13.390031 4.040502 33.972051 3.735811
2004-10-29 07:04:18 51°20.131 2°50.147 13.39562 4.052837 34.086464 3.634683
2004-10-29 07:04:23 51°20.148 2°50.133 13.398799 4.043032 33.992355 3.567264
2004-10-29 07:04:28 51°20.165 2°50.12 13.398799 4.043032 33.992355 3.567264
2004-10-29 07:04:32 51°20.179 2°50.109 13.402365 4.051572 34.069754 3.533554
2004-10-29 07:04:38 51°20.199 2°50.093 13.403858 4.051782 34.068972 3.533554
2004-10-29 07:04:43 51°20.217 2°50.079 13.407953 4.054523 34.091942 3.634683
2004-10-29 07:04:48 51°20.233 2°50.065 13.411614 4.053364 34.076225 3.702101
2004-10-29 07:04:52 51°20.247 2°50.054 13.414937 4.053258 34.074545 3.634683
2004-10-29 07:04:58 51°20.268 2°50.038 13.414937 4.053258 34.074545 3.634683
2004-10-29 07:05:03 51°20.285 2°50.024 13.419176 4.055577 34.090792 3.836939
2004-10-29 07:05:08 51°20.302 2°50.011 13.42168 4.056105 34.095739 3.76952
2004-10-29 07:05:10 51°20.309 2°50.005 13.426303 4.059267 34.121969 3.634683
2004-10-29 07:05:18 51°20.336 2°49.983 13.430686 4.05136 34.044327 3.634683
2004-10-29 07:05:23 51°20.353 2°49.969 13.435453 4.055366 34.078463 3.466136
2004-10-29 07:05:27 51°20.367 2°49.959 13.435453 4.055366 34.078463 3.466136
2004-10-29 07:05:33 51°20.387 2°49.942 13.438775 4.052942 34.054337 3.499845
2004-10-29 07:05:38 51°20.404 2°49.929 13.442338 4.05874 34.104594 3.668392
2004-10-29 07:05:42 51°20.418 2°49.918 13.44542 4.055788 34.073454 3.600973
2004-10-29 07:05:47 51°20.435 2°49.905 13.448357 4.057053 34.081873 3.600973
2004-10-29 07:05:52 51°20.452 2°49.891 13.452304 4.061586 34.120943 3.80323
2004-10-29 07:05:58 51°20.472 2°49.875 13.452304 4.061586 34.120943 3.80323
2004-10-29 07:06:02 51°20.486 2°49.864 13.451871 4.061692 34.117791 3.634683
2004-10-29 07:06:08 51°20.506 2°49.847 13.454615 4.048935 33.995433 3.567264
2004-10-29 07:06:12 51°20.52 2°49.837 13.456685 4.058318 34.081327 3.600973
2004-10-29 07:06:16 51°20.533 2°49.826 13.459669 4.065276 34.142433 3.668392
2004-10-29 07:06:20 51°20.547 2°49.815 13.458081 4.049357 33.993199 3.466136
2004-10-29 07:06:32 51°20.587 2°49.782 13.460199 4.059161 34.083721 3.499845
2004-10-29 07:06:38 51°20.608 2°49.766 13.456926 4.051043 34.002819 3.634683
2004-10-29 07:06:42 51°20.622 2°49.755 13.45837 4.065065 34.133554 3.600973
2004-10-29 07:06:48 51°20.642 2°49.739 13.452737 4.061586 34.09887 3.331298
2004-10-29 07:06:53 51°20.659 2°49.725 13.451582 4.053679 34.026141 3.432426
2004-10-29 07:06:58 51°20.676 2°49.711 13.451582 4.053679 34.026141 3.432426
2004-10-29 07:07:03 51°20.693 2°49.698 13.451486 4.053152 34.02189 3.365007
2004-10-29 07:07:08 51°20.71 2°49.684 13.452978 4.057053 34.057757 3.398717
2004-10-29 07:07:11 51°20.72 2°49.676 13.453797 4.062429 34.109534 3.365007
2004-10-29 07:07:18 51°20.744 2°49.657 13.453989 4.064432 34.127623 3.432426
2004-10-29 07:07:23 51°20.761 2°49.643 13.455433 4.060005 34.086803 3.263879
2004-10-29 07:07:26 51°20.771 2°49.635 13.455433 4.060005 34.086803 3.263879
2004-10-29 07:07:32 51°20.791 2°49.618 13.456155 4.059267 34.079197 3.668392
2004-10-29 07:07:38 51°20.812 2°49.601 13.458562 4.064011 34.12367 3.466136
2004-10-29 07:07:43 51°20.829 2°49.588 13.458851 4.060953 34.097766 3.634683
2004-10-29 07:07:56 51°20.873 2°49.553 13.458851 4.060848 34.096088 3.297589
2004-10-29 07:08:02 51°20.893 2°49.536 13.463664 4.054206 34.030393 3.600973
2004-10-29 07:08:03 51°20.896 2°49.533 13.462846 4.050305 33.992469 3.365007
2004-10-29 07:08:12 51°20.927 2°49.508 13.467467 4.060005 34.084047 3.533554
2004-10-29 07:08:16 51°20.94 2°49.497 13.470306 4.06011 34.083657 3.499845
2004-10-29 07:08:22 51°20.96 2°49.48 13.470306 4.06011 34.083657 3.499845
2004-10-29 07:08:26 51°20.973 2°49.469 13.478969 4.060953 34.088806 3.600973
2004-10-29 07:08:31 51°20.99 2°49.455 13.48253 4.047354 33.964814 3.533554
2004-10-29 07:08:35 51°21.004 2°49.444 13.488592 4.055893 34.040008 3.533554
2004-10-29 07:08:42 51°21.027 2°49.425 13.493211 4.062218 34.095839 3.533554
2004-10-29 07:08:46 51°21.04 2°49.414 13.496483 4.063694 34.104847 3.365007
2004-10-29 07:08:52 51°21.06 2°49.397 13.496483 4.063694 34.104847 3.365007
2004-10-29 07:08:57 51°21.077 2°49.382 13.500476 4.061797 34.085688 3.533554
2004-10-29 07:09:02 51°21.094 2°49.368 13.503314 4.0677 34.136183 3.432426
2004-10-29 07:09:06 51°21.107 2°49.357 13.508173 4.066014 34.117621 3.398717
2004-10-29 07:09:12 51°21.127 2°49.341 13.512405 4.067384 34.123569 3.398717
2004-10-29 07:09:15 51°21.137 2°49.332 13.516542 4.069282 34.138588 3.297589
2004-10-29 07:09:22 51°21.161 2°49.314 13.516542 4.069282 34.138588 3.297589
2004-10-29 07:09:26 51°21.175 2°49.303 13.522794 4.071496 34.15588 3.533554
2004-10-29 07:09:32 51°21.195 2°49.287 13.524958 4.069071 34.130411 3.567264
2004-10-29 07:09:35 51°21.205 2°49.279 13.532604 4.069809 34.133188 3.702101
2004-10-29 07:09:41 51°21.225 2°49.263 13.534383 4.072444 34.153735 3.600973
2004-10-29 07:09:52 51°21.262 2°49.233 13.539239 4.071284 34.134608 3.499845
2004-10-29 07:09:58 51°21.282 2°49.216 13.539239 4.071284 34.134608 3.499845
2004-10-29 07:10:02 51°21.296 2°49.205 13.541403 4.074447 34.159395 3.80323
2004-10-29 07:10:08 51°21.316 2°49.188 13.54597 4.067805 34.095848 3.567264
2004-10-29 07:10:10 51°21.322 2°49.183 13.548037 4.072549 34.136121 3.836939
2004-10-29 07:10:18 51°21.349 2°49.161 13.550681 4.075185 34.158035 3.971777
2004-10-29 07:10:22 51°21.363 2°49.15 13.552988 4.077188 34.176095 3.533554
2004-10-29 07:10:28 51°21.383 2°49.133 13.552988 4.077188 34.176095 3.533554
2004-10-29 07:10:33 51°21.4 2°49.119 13.557026 4.076028 34.160417 3.634683
2004-10-29 07:10:34 51°21.404 2°49.117 13.558468 4.075607 34.156471 3.76952
2004-10-29 07:10:43 51°21.434 2°49.092 13.56241 4.078769 34.179179 3.76952
2004-10-29 07:10:56 51°21.479 2°49.057 13.569763 4.076977 34.160342 3.904358
2004-10-29 07:11:02 51°21.499 2°49.041 13.572887 4.079718 34.183923 3.600973
2004-10-29 07:11:06 51°21.513 2°49.03 13.578221 4.07529 34.139742 3.76952
2004-10-29 07:11:11 51°21.53 2°49.016 13.583314 4.076133 34.144191 3.668392
2004-10-29 07:11:16 51°21.547 2°49.003 13.589992 4.078664 34.165106 3.870648
2004-10-29 07:11:22 51°21.567 2°48.986 13.589992 4.078664 34.165106 3.870648
2004-10-29 07:11:27 51°21.584 2°48.973 13.595277 4.075712 34.134743 3.904358
2004-10-29 07:11:32 51°21.601 2°48.959 13.602627 4.081088 34.181589 3.80323
2004-10-29 07:11:37 51°21.618 2°48.945 13.609352 4.081932 34.184657 3.76952
2004-10-29 07:11:42 51°21.635 2°48.932 13.614827 4.078453 34.147995 3.938067
2004-10-29 07:11:48 51°21.655 2°48.915 13.619437 4.082564 34.181621 4.34258
2004-10-29 07:11:51 51°21.666 2°48.908 13.619437 4.082564 34.181621 4.34258
2004-10-29 07:11:54 51°21.676 2°48.899 13.625968 4.082775 34.180151 4.106614
2004-10-29 07:12:02 51°21.703 2°48.877 13.631394 4.073286 34.084597 4.140324
2004-10-29 07:12:07 51°21.72 2°48.863 13.638548 4.087203 34.208465 4.005486
2004-10-29 07:12:10 51°21.73 2°48.855 13.643253 4.088152 34.212514 4.140324
2004-10-29 07:12:16 51°21.75 2°48.839 13.649494 4.0755 34.08813 3.870648
2004-10-29 07:12:22 51°21.771 2°48.824 13.649494 4.0755 34.08813 3.870648
2004-10-29 07:12:27 51°21.788 2°48.81 13.65559 4.088468 34.205144 3.938067
2004-10-29 07:12:32 51°21.805 2°48.796 13.663701 4.084989 34.166454 4.005486
2004-10-29 07:12:44 51°21.846 2°48.764 13.675842 4.091525 34.217192 4.039195
2004-10-29 07:12:49 51°21.862 2°48.75 13.680449 4.091736 34.215034 4.174033
2004-10-29 07:12:54 51°21.879 2°48.737 13.684911 4.088573 34.178627 3.904358
2004-10-29 07:12:59 51°21.896 2°48.723 13.689613 4.08309 34.122652 3.836939
2004-10-29 07:13:04 51°21.913 2°48.71 13.689613 4.08309 34.122652 3.836939
2004-10-29 07:13:08 51°21.927 2°48.698 13.69417 4.092684 34.20533 4.072905
2004-10-29 07:13:14 51°21.947 2°48.682 13.69796 4.094477 34.215185 4.072905
2004-10-29 07:13:19 51°21.964 2°48.668 13.701653 4.09532 34.22237 4.207742
2004-10-29 07:13:22 51°21.975 2°48.66 13.705778 4.095531 34.220213 4.106614
2004-10-29 07:13:28 51°21.995 2°48.643 13.708752 4.096796 34.225834 4.34258
2004-10-29 07:13:34 51°22.015 2°48.627 13.708752 4.096796 34.225834 4.34258
2004-10-29 07:13:38 51°22.029 2°48.616 13.712109 4.097428 34.228987 4.275161
2004-10-29 07:13:43 51°22.046 2°48.603 13.716042 4.097534 34.224474 4.140324
2004-10-29 07:13:48 51°22.063 2°48.589 13.718679 4.098799 34.234214 4.544836
2004-10-29 07:13:54 51°22.083 2°48.573 13.722659 4.096058 34.204525 4.612255
2004-10-29 07:13:59 51°22.1 2°48.559 13.725489 4.095425 34.196567 4.511127
2004-10-29 07:14:02 51°22.111 2°48.551 13.725489 4.095425 34.196567 4.511127
2004-10-29 07:14:07 51°22.128 2°48.537 13.728653 4.100907 34.244949 4.376289
2004-10-29 07:14:18 51°22.165 2°48.508 13.735749 4.103016 34.257055 4.477418
2004-10-29 07:14:23 51°22.182 2°48.494 13.738098 4.095425 34.184219 4.511127
2004-10-29 07:14:28 51°22.199 2°48.48 13.738098 4.095425 34.184219 4.511127
2004-10-29 07:14:31 51°22.21 2°48.472 13.741119 4.101118 34.234551 4.679674
2004-10-29 07:14:38 51°22.233 2°48.453 13.743707 4.103437 34.252742 4.747093
2004-10-29 07:14:42 51°22.247 2°48.443 13.746775 4.101329 34.231024 4.679674
2004-10-29 07:14:46 51°22.261 2°48.432 13.750178 4.103648 34.2499 4.612255
2004-10-29 07:14:51 51°22.278 2°48.418 13.753821 4.104913 34.258946 4.713383
2004-10-29 07:14:56 51°22.295 2°48.405 13.753821 4.104913 34.258946 4.713383
2004-10-29 07:15:02 51°22.315 2°48.389 13.757224 4.106811 34.273201 4.544836
2004-10-29 07:15:07 51°22.332 2°48.375 13.761106 4.101329 34.219358 4.679674
2004-10-29 07:15:12 51°22.349 2°48.361 13.765324 4.105019 34.252374 4.544836
2004-10-29 07:15:24 51°22.389 2°48.329 13.775674 4.100169 34.199638 4.679674
2004-10-29 07:15:30 51°22.409 2°48.312 13.779459 4.107549 34.265655 4.443708
2004-10-29 07:15:35 51°22.426 2°48.299 13.782094 4.109447 34.279217 4.747093
2004-10-29 07:15:39 51°22.44 2°48.288 13.782094 4.109447 34.279217 4.747093
2004-10-29 07:15:44 51°22.456 2°48.274 13.785688 4.099536 34.181416 4.511127
2004-10-29 07:15:50 51°22.476 2°48.259 13.788658 4.107338 34.252708 4.88193
2004-10-29 07:15:55 51°22.493 2°48.246 13.791916 4.109868 34.271473 4.34258
2004-10-29 07:15:59 51°22.507 2°48.236 13.794167 4.110606 34.274915 4.544836
2004-10-29 07:16:04 51°22.524 2°48.223 13.796323 4.112398 34.290922 4.848221
2004-10-29 07:16:10 51°22.543 2°48.207 13.796323 4.112398 34.290922 4.848221
2004-10-29 07:16:14 51°22.557 2°48.197 13.796993 4.100801 34.177451 4.477418
2004-10-29 07:16:20 51°22.577 2°48.183 13.799292 4.111977 34.280129 4.679674
2004-10-29 07:16:24 51°22.59 2°48.173 13.801208 4.11514 34.306151 4.477418
2004-10-29 07:16:30 51°22.611 2°48.161 13.805471 4.113663 34.291719 4.645965
2004-10-29 07:16:32 51°22.618 2°48.157 13.805232 4.113769 34.288582 4.713383
2004-10-29 07:16:40 51°22.645 2°48.141 13.805232 4.113769 34.288582 4.713383
2004-10-29 07:16:44 51°22.659 2°48.133 13.808201 4.115139 34.300657 4.443708
2004-10-29 07:16:50 51°22.68 2°48.12 13.809207 4.105545 34.207235 4.645965
2004-10-29 07:16:55 51°22.697 2°48.11 13.810404 4.115983 34.304391 4.544836
2004-10-29 07:17:00 51°22.714 2°48.099 13.811122 4.112293 34.269352 4.679674
2004-10-29 07:17:02 51°22.721 2°48.095 13.812032 4.114401 34.286237 4.511127
2004-10-29 07:17:10 51°22.748 2°48.077 13.812032 4.114401 34.286237 4.511127
2004-10-29 07:17:15 51°22.765 2°48.065 13.813517 4.11535 34.291639 4.578546
2004-10-29 07:17:20 51°22.783 2°48.055 13.815289 4.117459 34.311267 4.578546
2004-10-29 07:17:24 51°22.797 2°48.046 13.816582 4.114718 34.285751 4.477418
2004-10-29 07:17:30 51°22.817 2°48.033 13.8173 4.118091 34.316469 4.780802
2004-10-29 07:17:35 51°22.834 2°48.023 13.81888 4.116932 34.303614 4.477418
2004-10-29 07:17:40 51°22.851 2°48.012 13.81888 4.116932 34.303614 4.477418
2004-10-29 07:17:42 51°22.858 2°48.008 13.819168 4.118091 34.313723 4.679674
2004-10-29 07:17:50 51°22.886 2°47.99 13.821322 4.115666 34.289781 4.645965
2004-10-29 07:17:55 51°22.903 2°47.98 13.82161 4.119146 34.319417 4.511127
2004-10-29 07:18:00 51°22.92 2°47.969 13.822807 4.118935 34.317455 4.612255
2004-10-29 07:18:04 51°22.934 2°47.96 13.823238 4.109024 34.223864 4.645965
2004-10-29 07:18:10 51°22.955 2°47.946 13.823238 4.109024 34.223864 4.645965
2004-10-29 07:18:14 51°22.968 2°47.937 13.824818 4.111238 34.243777 4.544836
2004-10-29 07:18:20 51°22.989 2°47.924 13.826111 4.116826 34.295772 4.679674
2004-10-29 07:18:24 51°23.003 2°47.915 13.828457 4.119462 34.318242 4.713383
2004-10-29 07:18:30 51°23.023 2°47.901 13.8286 4.119462 34.31687 4.679674
2004-10-29 07:18:35 51°23.041 2°47.89 13.83018 4.117986 34.303134 4.679674
2004-10-29 07:18:40 51°23.058 2°47.88 13.83018 4.117986 34.303134 4.679674
2004-10-29 07:18:44 51°23.072 2°47.871 13.83109 4.120727 34.327957 4.477418
2004-10-29 07:18:50 51°23.092 2°47.857 13.832383 4.115034 34.273609 4.308871
2004-10-29 07:18:54 51°23.106 2°47.849 13.832574 4.118829 34.30618 4.679674
2004-10-29 07:18:59 51°23.123 2°47.837 13.833196 4.109867 34.222812 4.544836
2004-10-29 07:19:05 51°23.144 2°47.824 13.83492 4.118197 34.300294 4.747093
2004-10-29 07:19:10 51°23.161 2°47.813 13.83492 4.118197 34.300294 4.747093
2004-10-29 07:19:15 51°23.178 2°47.801 13.835016 4.119778 34.314323 4.679674
2004-10-29 07:19:18 51°23.189 2°47.794 13.836356 4.115034 34.268126 4.477418
2004-10-29 07:19:24 51°23.21 2°47.781 13.836356 4.114612 34.264203 4.780802
2004-10-29 07:19:30 51°23.23 2°47.768 13.837457 4.120938 34.320996 5.084187
2004-10-29 07:19:34 51°23.244 2°47.761 13.840425 4.116299 34.27784 4.409999
2004-10-29 07:19:40 51°23.265 2°47.747 13.840425 4.116299 34.27784 4.409999
2004-10-29 07:19:44 51°23.279 2°47.738 13.839611 4.119356 34.304911 4.443708
2004-10-29 07:19:50 51°23.299 2°47.725 13.841095 4.121359 34.324234 4.409999
2004-10-29 07:19:55 51°23.317 2°47.715 13.841383 4.121992 34.327374 4.544836
2004-10-29 07:19:59 51°23.331 2°47.706 13.843441 4.120832 34.316585 4.477418
2004-10-29 07:20:05 51°23.351 2°47.693 13.844973 4.120516 34.313642 4.376289
2004-10-29 07:20:10 51°23.369 2°47.683 13.844973 4.120516 34.313642 4.376289
2004-10-29 07:20:14 51°23.383 2°47.674 13.844398 4.121992 34.325315 4.578546
2004-10-29 07:20:20 51°23.403 2°47.66 13.844973 4.122625 34.331887 4.511127
2004-10-29 07:20:34 51°23.451 2°47.629 13.847462 4.11535 34.261478 4.780802
2004-10-29 07:20:39 51°23.468 2°47.618 13.848563 4.120305 34.305508 4.511127
2004-10-29 07:20:42 51°23.479 2°47.612 13.848276 4.122203 34.32316 4.544836
2004-10-29 07:20:48 51°23.499 2°47.599 13.850669 4.115982 34.264622 4.376289
2004-10-29 07:20:54 51°23.52 2°47.586 13.85244 4.119567 34.296588 4.409999
2004-10-29 07:20:58 51°23.534 2°47.578 13.856508 4.119251 34.294332 4.477418
2004-10-29 07:21:03 51°23.551 2°47.567 13.856508 4.119251 34.294332 4.477418
2004-10-29 07:21:08 51°23.569 2°47.555 13.85378 4.121886 34.317475 4.511127
2004-10-29 07:21:14 51°23.589 2°47.542 13.854498 4.121781 34.315122 4.511127
2004-10-29 07:21:18 51°23.603 2°47.533 13.855168 4.122097 34.316693 4.477418
2004-10-29 07:21:22 51°23.617 2°47.525 13.857513 4.124417 34.335521 4.376289
2004-10-29 07:21:27 51°23.634 2°47.514 13.857896 4.118196 34.278361 4.544836
2004-10-29 07:21:34 51°23.659 2°47.499 13.857896 4.118196 34.278361 4.544836
2004-10-29 07:21:38 51°23.672 2°47.49 13.860384 4.126104 34.349837 4.713383
2004-10-29 07:21:43 51°23.69 2°47.48 13.860576 4.12526 34.341993 4.578546
2004-10-29 07:21:48 51°23.707 2°47.469 13.862059 4.123573 34.324933 4.578546
2004-10-29 07:21:54 51°23.728 2°47.455 13.861246 4.121886 34.307876 4.544836
2004-10-29 07:21:59 51°23.745 2°47.443 13.861533 4.112925 34.22388 4.578546
2004-10-29 07:22:02 51°23.755 2°47.436 13.861533 4.112925 34.22388 4.578546
2004-10-29 07:22:09 51°23.779 2°47.42 13.863399 4.118196 34.274252 4.443708
2004-10-29 07:22:12 51°23.79 2°47.413 13.863782 4.119883 34.285825 4.477418
2004-10-29 07:22:18 51°23.81 2°47.401 13.866127 4.112503 34.217909 4.511127
2004-10-29 07:22:24 51°23.831 2°47.388 13.867419 4.117985 34.268868 4.443708
2004-10-29 07:22:28 51°23.845 2°47.38 13.869716 4.126842 34.351211 4.376289
2004-10-29 07:22:34 51°23.865 2°47.368 13.869716 4.126842 34.351211 4.376289
2004-10-29 07:22:38 51°23.879 2°47.358 13.866605 4.128739 34.3668 4.376289
2004-10-29 07:22:44 51°23.9 2°47.344 13.867993 4.124627 34.325822 4.140324
2004-10-29 07:22:47 51°23.91 2°47.337 13.868663 4.122202 34.303963 4.409999
2004-10-29 07:22:58 51°23.947 2°47.312 13.872108 4.124311 34.322196 4.409999
2004-10-29 07:23:03 51°23.965 2°47.301 13.870864 4.12526 34.330332 4.409999
2004-10-29 07:23:06 51°23.975 2°47.294 13.873065 4.128634 34.362387 4.409999
2004-10-29 07:23:13 51°23.999 2°47.28 13.873448 4.127052 34.346996 4.174033
2004-10-29 07:23:18 51°24.017 2°47.269 13.873161 4.122308 34.301518 4.376289
2004-10-29 07:23:22 51°24.03 2°47.26 13.873687 4.126314 34.342878 4.376289
2004-10-29 07:23:28 51°24.051 2°47.248 13.873687 4.126314 34.342878 4.376289
2004-10-29 07:23:33 51°24.069 2°47.237 13.877563 4.128212 34.355035 4.308871
2004-10-29 07:23:38 51°24.086 2°47.227 13.875075 4.124838 34.322983 4.477418
2004-10-29 07:23:42 51°24.1 2°47.218 13.878759 4.126631 34.337588 4.409999
2004-10-29 07:23:56 51°24.148 2°47.187 13.878424 4.129372 34.365818 4.578546
2004-10-29 07:24:06 51°24.182 2°47.166 13.880625 4.12895 34.35778 4.511127
2004-10-29 07:24:14 51°24.209 2°47.149 13.883495 4.13127 34.377971 4.308871
2004-10-29 07:24:19 51°24.226 2°47.138 13.88517 4.129477 34.360622 4.376289
2004-10-29 07:24:23 51°24.24 2°47.13 13.886701 4.13127 34.378658 4.140324
2004-10-29 07:24:26 51°24.25 2°47.123 13.886126 4.129688 34.361896 4.207742
2004-10-29 07:24:34 51°24.278 2°47.105 13.886126 4.129688 34.361896 4.207742
2004-10-29 07:24:39 51°24.295 2°47.094 13.889236 4.122519 34.293889 4.443708
2004-10-29 07:24:43 51°24.308 2°47.086 13.890815 4.12779 34.33877 4.106614
2004-10-29 07:24:48 51°24.325 2°47.074 13.893637 4.128212 34.34406 4.039195
2004-10-29 07:24:54 51°24.346 2°47.061 13.894593 4.130531 34.364934 4.174033
2004-10-29 07:24:59 51°24.363 2°47.049 13.896794 4.130531 34.362876 4.477418
2004-10-29 07:25:03 51°24.376 2°47.041 13.896794 4.130531 34.362876 4.477418
2004-10-29 07:25:08 51°24.393 2°47.029 13.898563 4.125998 34.320742 4.376289
2004-10-29 07:25:14 51°24.414 2°47.016 13.900142 4.126525 34.323586 4.376289
2004-10-29 07:25:19 51°24.431 2°47.005 13.903633 4.13148 34.366893 4.275161
2004-10-29 07:25:24 51°24.448 2°46.995 13.90392 4.132535 34.376006 4.443708
2004-10-29 07:25:28 51°24.461 2°46.985 13.906216 4.128633 34.334957 4.34258
2004-10-29 07:25:34 51°24.482 2°46.973 13.906216 4.128633 34.334957 4.34258
2004-10-29 07:25:39 51°24.499 2°46.961 13.909372 4.12895 34.339266 4.308871
2004-10-29 07:25:44 51°24.516 2°46.951 13.909468 4.132956 34.374437 4.34258
2004-10-29 07:25:48 51°24.53 2°46.942 13.913485 4.126419 34.313017 4.174033
2004-10-29 07:25:54 51°24.55 2°46.929 13.913054 4.127579 34.321737 4.308871
2004-10-29 07:25:58 51°24.564 2°46.92 13.920084 4.122097 34.267394 4.443708
2004-10-29 07:26:04 51°24.585 2°46.907 13.920084 4.122097 34.267394 4.443708
2004-10-29 07:26:09 51°24.602 2°46.896 13.91994 4.131058 34.347892 4.241452
2004-10-29 07:26:12 51°24.613 2°46.889 13.920371 4.134643 34.380508 4.308871
2004-10-29 07:26:18 51°24.634 2°46.876 13.931941 4.135803 34.387853 4.174033
2004-10-29 07:26:24 51°24.654 2°46.861 13.924196 4.134432 34.37512 4.275161
2004-10-29 07:26:28 51°24.668 2°46.854 13.928929 4.133694 34.366208 4.477418
2004-10-29 07:26:34 51°24.688 2°46.838 13.928929 4.133694 34.366208 4.477418
2004-10-29 07:26:39 51°24.706 2°46.828 13.925678 4.125576 34.287394 4.174033
2004-10-29 07:26:44 51°24.723 2°46.815 13.933471 4.134221 34.36425 4.039195
2004-10-29 07:26:49 51°24.74 2°46.805 13.931558 4.134643 34.367482 4.241452
2004-10-29 07:26:54 51°24.757 2°46.792 13.937391 4.132429 34.344866 4.241452
2004-10-29 07:26:59 51°24.774 2°46.782 13.947142 4.133694 34.357299 4.207742
2004-10-29 07:27:04 51°24.791 2°46.769 13.947142 4.133694 34.357299 4.207742
2004-10-29 07:27:06 51°24.798 2°46.765 13.947429 4.133167 34.349665 4.275161
2004-10-29 07:27:14 51°24.825 2°46.746 13.948815 4.133905 34.355832 4.308871
2004-10-29 07:27:19 51°24.843 2°46.734 13.951348 4.136646 34.37786 4.443708
2004-10-29 07:27:24 51°24.859 2°46.722 13.959472 4.137384 34.379916 4.477418
2004-10-29 07:27:28 51°24.873 2°46.714 13.962531 4.138438 34.385592 4.174033
2004-10-29 07:27:34 51°24.893 2°46.7 13.962531 4.138438 34.385592 4.174033
2004-10-29 07:27:38 51°24.907 2°46.692 13.96793 4.138438 34.383537 4.376289
2004-10-29 07:27:43 51°24.924 2°46.681 13.975862 4.137489 34.374043 4.34258
2004-10-29 07:27:46 51°24.935 2°46.674 13.978394 4.139176 34.385591 3.971777
2004-10-29 07:27:52 51°24.955 2°46.661 13.983744 4.141601 34.402617 4.477418
2004-10-29 07:28:12 51°25.023 2°46.616 14.002468 4.142655 34.400068 3.938067
2004-10-29 07:28:16 51°25.036 2°46.607 14.005668 4.138965 34.360358 3.836939
2004-10-29 07:28:22 51°25.057 2°46.594 14.005668 4.138965 34.360358 3.836939
2004-10-29 07:28:27 51°25.074 2°46.583 14.008438 4.144026 34.403195 4.275161
2004-10-29 07:28:32 51°25.09 2°46.572 14.011398 4.144237 34.401042 4.140324
2004-10-29 07:28:35 51°25.1 2°46.565 14.016651 4.149297 34.441132 4.039195
2004-10-29 07:28:41 51°25.121 2°46.553 14.023001 4.140968 34.361838 3.971777
2004-10-29 07:28:46 51°25.138 2°46.542 14.023908 4.148032 34.423232 4.409999
2004-10-29 07:28:52 51°25.158 2°46.529 14.023908 4.148032 34.423232 4.409999
2004-10-29 07:28:56 51°25.172 2°46.521 14.027537 4.14645 34.40446 3.904358
2004-10-29 07:29:00 51°25.186 2°46.512 14.02873 4.147716 34.414137 4.308871
2004-10-29 07:29:07 51°25.21 2°46.497 14.032549 4.137699 34.315833 4.005486
2004-10-29 07:29:12 51°25.227 2°46.488 14.033647 4.136012 34.296111 4.072905
2004-10-29 07:29:14 51°25.234 2°46.485 14.035175 4.132533 34.261155 4.072905
2004-10-29 07:29:22 51°25.261 2°46.471 14.035175 4.132533 34.261155 4.072905
2004-10-29 07:29:27 51°25.278 2°46.463 14.033122 4.151617 34.434554 4.005486
2004-10-29 07:29:32 51°25.296 2°46.456 14.033218 4.147294 34.394492 3.904358
2004-10-29 07:29:36 51°25.309 2°46.451 14.030592 4.153198 34.446473 3.668392
2004-10-29 07:29:39 51°25.32 2°46.446 14.029399 4.153725 34.447935 3.600973
2004-10-29 07:29:47 51°25.348 2°46.435 14.02811 4.149402 34.407193 3.533554
2004-10-29 07:29:50 51°25.358 2°46.43 14.023336 4.148453 34.400452 3.80323
2004-10-29 07:29:58 51°25.386 2°46.418 14.023336 4.148453 34.400452 3.80323
2004-10-29 07:30:03 51°25.403 2°46.409 14.025341 4.137172 34.2939 3.735811
2004-10-29 07:30:07 51°25.417 2°46.404 14.018131 4.150351 34.418038 3.938067
2004-10-29 07:30:13 51°25.438 2°46.394 14.020232 4.147926 34.397619 3.735811
2004-10-29 07:30:18 51°25.456 2°46.386 14.011637 4.153514 34.450775 3.76952
2004-10-29 07:30:22 51°25.47 2°46.379 14.009775 4.142865 34.354827 4.140324
2004-10-29 07:30:27 51°25.487 2°46.37 14.009775 4.142865 34.354827 4.140324
2004-10-29 07:30:32 51°25.505 2°46.362 14.00605 4.147294 34.396544 3.938067
2004-10-29 07:30:38 51°25.526 2°46.351 14.002611 4.150457 34.427227 3.702101
2004-10-29 07:30:43 51°25.544 2°46.343 13.998361 4.141811 34.350521 3.904358
2004-10-29 07:30:47 51°25.558 2°46.336 13.994492 4.149613 34.427624 4.174033
2004-10-29 07:30:51 51°25.572 2°46.329 13.991961 4.147505 34.412866 4.308871
2004-10-29 07:30:58 51°25.596 2°46.317 13.991961 4.147505 34.412866 4.308871
2004-10-29 07:31:02 51°25.611 2°46.311 13.990671 4.145502 34.394979 4.241452
2004-10-29 07:31:07 51°25.628 2°46.302 13.988808 4.146134 34.40495 4.275161
2004-10-29 07:31:14 51°25.652 2°46.291 13.981212 4.140335 34.353922 4.140324
2004-10-29 07:31:18 51°25.666 2°46.284 13.97997 4.148665 34.435264 4.140324
2004-10-29 07:31:23 51°25.684 2°46.275 13.981499 4.146134 34.413851 4.477418
2004-10-29 07:31:28 51°25.701 2°46.267 13.981499 4.146134 34.413851 4.477418
2004-10-29 07:31:31 51°25.711 2°46.262 13.975049 4.148349 34.435072 4.544836
2004-10-29 07:31:38 51°25.736 2°46.251 13.976005 4.148665 34.442118 4.34258
2004-10-29 07:31:43 51°25.753 2°46.242 13.979636 4.138332 34.348336 4.275161
2004-10-29 07:31:44 51°25.756 2°46.24 13.975384 4.140757 34.372194 4.443708
2004-10-29 07:31:56 51°25.798 2°46.22 13.975862 4.144975 34.414738 4.072905
2004-10-29 07:32:02 51°25.819 2°46.21 13.976005 4.146135 34.426868 4.511127
2004-10-29 07:32:07 51°25.836 2°46.201 13.979063 4.142128 34.390383 4.308871
2004-10-29 07:32:11 51°25.85 2°46.194 13.976292 4.145818 34.424619 4.544836
2004-10-29 07:32:16 51°25.868 2°46.186 13.978155 4.14371 34.403 4.612255
2004-10-29 07:32:21 51°25.885 2°46.178 13.978155 4.14371 34.403 4.612255
2004-10-29 07:32:27 51°25.905 2°46.168 13.985178 4.146873 34.434402 4.376289
2004-10-29 07:32:32 51°25.922 2°46.161 13.983314 4.143077 34.399871 4.477418
2004-10-29 07:32:34 51°25.929 2°46.158 13.991053 4.141601 34.384124 4.477418
2004-10-29 07:32:41 51°25.953 2°46.149 13.993155 4.147927 34.442813 4.511127
2004-10-29 07:32:47 51°25.974 2°46.14 13.996068 4.146135 34.424812 4.477418
2004-10-29 07:32:52 51°25.992 2°46.132 13.996068 4.146135 34.424812 4.477418
2004-10-29 07:32:55 51°26.002 2°46.127 13.9986 4.146029 34.421778 4.511127
2004-10-29 07:33:02 51°26.026 2°46.116 13.996498 4.145607 34.41307 4.578546
2004-10-29 07:33:07 51°26.044 2°46.108 14.001274 4.149087 34.44466 4.34258
2004-10-29 07:33:11 51°26.058 2°46.101 14.004044 4.145502 34.40456 4.477418
2004-10-29 07:33:16 51°26.075 2°46.093 14.009106 4.147189 34.422259 4.409999
2004-10-29 07:33:22 51°26.096 2°46.083 14.009106 4.147189 34.422259 4.409999
2004-10-29 07:33:32 51°26.13 2°46.067 14.018561 4.144658 34.393317 4.308871
2004-10-29 07:33:34 51°26.137 2°46.064 14.019516 4.144026 34.386767 4.477418
2004-10-29 07:33:42 51°26.165 2°46.051 14.024529 4.148032 34.419123 4.275161
2004-10-29 07:33:47 51°26.182 2°46.043 14.028683 4.149192 34.426453 4.511127
2004-10-29 07:33:52 51°26.199 2°46.035 14.028683 4.149192 34.426453 4.511127
2004-10-29 07:33:56 51°26.213 2°46.028 14.032979 4.150668 34.435344 4.308871
2004-10-29 07:34:02 51°26.234 2°46.019 14.032549 4.150879 34.436614 4.308871
2004-10-29 07:34:06 51°26.248 2°46.012 14.038755 4.138121 34.314964 4.174033
2004-10-29 07:34:09 51°26.259 2°46.007 14.039471 4.152038 34.442572 4.241452
2004-10-29 07:34:23 51°26.308 2°45.983 14.048826 4.155307 34.465333 4.511127
2004-10-29 07:34:30 51°26.332 2°45.972 14.050974 4.154358 34.453113 4.544836
2004-10-29 07:34:35 51°26.35 2°45.963 14.055126 4.152987 34.436989 4.409999
2004-10-29 07:34:39 51°26.364 2°45.956 14.055126 4.152987 34.436989 4.409999
2004-10-29 07:34:47 51°26.392 2°45.942 14.060614 4.154252 34.443921 4.241452
2004-10-29 07:34:50 51°26.402 2°45.936 14.063858 4.156256 34.459743 4.207742
2004-10-29 07:34:58 51°26.43 2°45.923 14.063858 4.156256 34.459743 4.207742
2004-10-29 07:35:03 51°26.447 2°45.914 14.070538 4.148137 34.381803 4.409999
2004-10-29 07:35:07 51°26.461 2°45.908 14.070968 4.157732 34.465887 3.938067
2004-10-29 07:35:13 51°26.482 2°45.898 14.07445 4.156466 34.452798 4.207742
2004-10-29 07:35:18 51°26.499 2°45.889 14.076168 4.154041 34.426917 3.938067
2004-10-29 07:35:22 51°26.513 2°45.882 14.079174 4.144341 34.334376 4.140324
2004-10-29 07:35:27 51°26.531 2°45.874 14.079174 4.144341 34.334376 4.140324
2004-10-29 07:35:31 51°26.545 2°45.867 14.082227 4.160789 34.481884 3.971777
2004-10-29 07:35:38 51°26.569 2°45.856 14.084373 4.156361 34.43814 4.005486
2004-10-29 07:35:40 51°26.576 2°45.852 14.083658 4.161 34.479045 3.80323
2004-10-29 07:35:48 51°26.604 2°45.838 14.086711 4.154884 34.421056 3.904358
2004-10-29 07:35:50 51°26.611 2°45.834 14.088809 4.161632 34.479427 4.072905
2004-10-29 07:35:58 51°26.639 2°45.819 14.088809 4.161632 34.479427 4.072905
2004-10-29 07:36:02 51°26.653 2°45.813 14.088142 4.16469 34.507054 3.971777
2004-10-29 07:36:08 51°26.674 2°45.802 14.092577 4.161738 34.476297 3.80323
2004-10-29 07:36:12 51°26.688 2°45.795 14.091862 4.160683 34.46722 3.904358
2004-10-29 07:36:18 51°26.709 2°45.785 14.093865 4.164585 34.504023 3.80323
2004-10-29 07:36:23 51°26.726 2°45.776 14.096918 4.162687 34.482345 3.735811
2004-10-29 07:36:28 51°26.743 2°45.767 14.096918 4.162687 34.482345 3.735811
2004-10-29 07:36:31 51°26.753 2°45.762 14.098396 4.16469 34.500891 4.106614
2004-10-29 07:36:38 51°26.777 2°45.751 14.100256 4.166904 34.520706 3.735811
2004-10-29 07:36:42 51°26.791 2°45.744 14.098921 4.165112 34.500003 3.971777
2004-10-29 07:36:48 51°26.811 2°45.735 14.103165 4.165744 34.506544 3.836939
2004-10-29 07:36:51 51°26.822 2°45.73 14.102259 4.166693 34.510535 3.80323
2004-10-29 07:37:06 51°26.873 2°45.705 14.104739 4.165744 34.499698 4.072905
2004-10-29 07:37:10 51°26.887 2°45.698 14.104357 4.165112 34.493159 3.600973
2004-10-29 07:37:15 51°26.904 2°45.689 14.104357 4.165112 34.493159 3.600973
2004-10-29 07:37:21 51°26.925 2°45.678 14.103594 4.166377 34.505554 3.971777
2004-10-29 07:37:26 51°26.942 2°45.67 14.105025 4.167009 34.511409 4.072905
2004-10-29 07:37:30 51°26.956 2°45.662 14.103022 4.166377 34.504185 4.275161
2004-10-29 07:37:36 51°26.977 2°45.653 14.105311 4.163741 34.478421 3.735811
2004-10-29 07:37:41 51°26.995 2°45.645 14.104262 4.161105 34.454713 3.80323
2004-10-29 07:37:46 51°27.012 2°45.638 14.104262 4.161105 34.454713 3.80323
2004-10-29 07:37:57 51°27.051 2°45.619 14.105264 4.166904 34.50701 4.072905
2004-10-29 07:38:02 51°27.068 2°45.61 14.106837 4.167958 34.516769 3.735811
2004-10-29 07:38:07 51°27.085 2°45.601 14.105788 4.165744 34.494224 3.80323
2004-10-29 07:38:12 51°27.103 2°45.593 14.106503 4.165322 34.491005 3.702101
2004-10-29 07:38:16 51°27.117 2°45.585 14.106122 4.166693 34.502321 3.971777
2004-10-29 07:38:20 51°27.131 2°45.579 14.106122 4.166693 34.502321 3.971777
2004-10-29 07:38:32 51°27.172 2°45.557 14.10617 4.168802 34.521837 3.836939
2004-10-29 07:38:37 51°27.19 2°45.547 14.107505 4.166798 34.503981 3.76952
2004-10-29 07:38:42 51°27.207 2°45.538 14.107791 4.164373 34.482908 3.904358
2004-10-29 07:38:46 51°27.221 2°45.531 14.109221 4.170805 34.542434 3.80323
2004-10-29 07:38:52 51°27.242 2°45.52 14.109221 4.170805 34.542434 3.80323
2004-10-29 07:38:57 51°27.26 2°45.511 14.107934 4.167958 34.514715 3.634683
2004-10-29 07:39:02 51°27.277 2°45.502 14.108315 4.168485 34.519594 3.466136
2004-10-29 07:39:06 51°27.291 2°45.494 14.109078 4.168802 34.521837 3.600973
2004-10-29 07:39:12 51°27.312 2°45.484 14.11151 4.167853 34.51237 3.76952
2004-10-29 07:39:14 51°27.318 2°45.48 14.111081 4.166904 34.504273 4.005486
2004-10-29 07:39:23 51°27.349 2°45.465 14.110795 4.165955 34.494807 3.76952
2004-10-29 07:39:29 51°27.37 2°45.455 14.11213 4.166904 34.500851 3.938067
2004-10-29 07:39:34 51°27.387 2°45.446 14.11213 4.166904 34.500851 3.938067
2004-10-29 07:39:38 51°27.401 2°45.439 14.112559 4.166904 34.501535 3.938067
2004-10-29 07:39:44 51°27.422 2°45.43 14.115611 4.168696 34.518122 3.870648
2004-10-29 07:39:48 51°27.436 2°45.423 14.116422 4.164795 34.479971 3.836939
2004-10-29 07:39:54 51°27.457 2°45.413 14.114705 4.166482 34.497633 3.735811
2004-10-29 07:39:59 51°27.474 2°45.404 14.114943 4.169856 34.526117 3.533554
2004-10-29 07:40:03 51°27.488 2°45.397 14.114943 4.169856 34.526117 3.533554
2004-10-29 07:40:09 51°27.509 2°45.388 14.12076 4.165322 34.483481 3.499845
2004-10-29 07:40:14 51°27.526 2°45.38 14.117184 4.171332 34.537723 3.702101
2004-10-29 07:40:18 51°27.54 2°45.374 14.117947 4.169223 34.518894 3.702101
2004-10-29 07:40:23 51°27.558 2°45.365 14.116708 4.16722 34.498989 3.80323
2004-10-29 07:40:28 51°27.575 2°45.356 14.118233 4.170489 34.528548 4.275161
2004-10-29 07:40:34 51°27.595 2°45.346 14.118233 4.170489 34.528548 4.275161
2004-10-29 07:40:38 51°27.609 2°45.34 14.119711 4.170594 34.526785 4.376289
2004-10-29 07:40:44 51°27.63 2°45.331 14.118901 4.168169 34.505032 3.76952
2004-10-29 07:40:48 51°27.644 2°45.325 14.126529 4.169329 34.516447 3.76952
2004-10-29 07:40:54 51°27.665 2°45.315 14.121237 4.170383 34.526887 3.668392
2004-10-29 07:40:58 51°27.679 2°45.309 14.127101 4.167747 34.50113 3.702101
2004-10-29 07:41:04 51°27.699 2°45.299 14.127101 4.167747 34.50113 3.702101
2004-10-29 07:41:07 51°27.71 2°45.294 14.125099 4.16838 34.504246 3.499845
2004-10-29 07:41:14 51°27.734 2°45.284 14.127387 4.167115 34.493226 3.466136
2004-10-29 07:41:19 51°27.751 2°45.277 14.129818 4.163846 34.460941 3.80323
2004-10-29 07:41:24 51°27.769 2°45.269 14.131963 4.168063 34.499952 3.533554
2004-10-29 07:41:29 51°27.786 2°45.261 14.126195 4.171648 34.531748 4.072905
2004-10-29 07:41:34 51°27.804 2°45.253 14.126195 4.171648 34.531748 4.072905
2004-10-29 07:41:38 51°27.818 2°45.246 14.126005 4.17091 34.52492 3.836939
2004-10-29 07:41:44 51°27.839 2°45.236 14.12467 4.170805 34.517786 3.668392
2004-10-29 07:41:49 51°27.857 2°45.227 14.126672 4.169329 34.503449 4.039195
2004-10-29 07:41:52 51°27.867 2°45.221 14.128245 4.171121 34.522765 3.80323
2004-10-29 07:41:59 51°27.892 2°45.209 14.134919 4.172176 34.536625 3.971777
2004-10-29 07:42:02 51°27.902 2°45.205 14.134919 4.172176 34.536625 3.971777
2004-10-29 07:42:09 51°27.927 2°45.192 14.132535 4.171648 34.531748 3.938067
2004-10-29 07:42:14 51°27.944 2°45.183 14.132774 4.169961 34.514088 4.039195
2004-10-29 07:42:18 51°27.958 2°45.176 14.137016 4.171543 34.528035 3.80323
2004-10-29 07:42:23 51°27.975 2°45.168 14.135491 4.168274 34.494381 4.005486
2004-10-29 07:42:28 51°27.993 2°45.159 14.135634 4.171965 34.528514 4.005486
2004-10-29 07:42:34 51°28.014 2°45.149 14.135634 4.171965 34.528514 4.005486
2004-10-29 07:42:38 51°28.027 2°45.142 14.141068 4.167852 34.487063 3.76952
2004-10-29 07:42:43 51°28.045 2°45.135 14.146167 4.169223 34.500422 3.836939
2004-10-29 07:42:48 51°28.062 2°45.125 14.139447 4.169012 34.497105 4.039195
2004-10-29 07:42:54 51°28.083 2°45.114 14.152029 4.165849 34.467855 3.938067
2004-10-29 07:42:59 51°28.101 2°45.105 14.144833 4.158574 34.397868 3.80323
2004-10-29 07:43:04 51°28.118 2°45.095 14.144833 4.158574 34.397868 3.80323
2004-10-29 07:43:08 51°28.132 2°45.088 14.148169 4.169328 34.495929 4.072905
2004-10-29 07:43:14 51°28.154 2°45.076 14.146835 4.169328 34.494562 3.870648
2004-10-29 07:43:16 51°28.161 2°45.072 14.155127 4.172175 34.518834 3.938067
2004-10-29 07:43:28 51°28.202 2°45.05 14.164228 4.168801 34.486271 4.140324
2004-10-29 07:43:34 51°28.224 2°45.04 14.164228 4.168801 34.486271 4.140324
2004-10-29 07:43:38 51°28.238 2°45.032 14.169231 4.172702 34.523025 3.938067
2004-10-29 07:43:44 51°28.259 2°45.021 14.170565 4.174706 34.537445 3.80323
2004-10-29 07:43:49 51°28.276 2°45.012 14.181903 4.174073 34.530228 3.80323
2004-10-29 07:43:54 51°28.294 2°45.003 14.181141 4.173229 34.517643 3.76952
2004-10-29 07:43:58 51°28.308 2°44.996 14.187809 4.177342 34.551554 3.870648
2004-10-29 07:44:02 51°28.322 2°44.989 14.187809 4.177342 34.551554 3.870648
2004-10-29 07:44:12 51°28.357 2°44.969 14.202097 4.1746 34.518009 3.76952
2004-10-29 07:44:15 51°28.368 2°44.963 14.212478 4.179134 34.555124 3.735811
2004-10-29 07:44:22 51°28.392 2°44.951 14.212478 4.179134 34.555124 3.735811
2004-10-29 07:44:27 51°28.41 2°44.944 14.214811 4.174705 34.512835 3.80323
2004-10-29 07:44:31 51°28.424 2°44.937 14.228569 4.178712 34.543022 3.567264
2004-10-29 07:44:36 51°28.442 2°44.93 14.22876 4.180715 34.555378 3.533554
2004-10-29 07:44:42 51°28.463 2°44.919 14.229712 4.171436 34.460811 3.533554
2004-10-29 07:44:46 51°28.477 2°44.913 14.231711 4.180715 34.541028 3.331298
2004-10-29 07:44:52 51°28.498 2°44.903 14.231711 4.180715 34.541028 3.331298
2004-10-29 07:44:57 51°28.515 2°44.894 14.233139 4.181453 34.542379 3.432426
2004-10-29 07:45:02 51°28.532 2°44.886 14.239422 4.182191 34.543048 3.499845
2004-10-29 07:45:06 51°28.546 2°44.88 14.240659 4.186092 34.57565 3.331298
2004-10-29 07:45:12 51°28.567 2°44.87 14.241135 4.1843 34.557735 3.297589
2004-10-29 07:45:17 51°28.584 2°44.862 14.240516 4.174705 34.46509 3.398717
2004-10-29 07:45:22 51°28.602 2°44.856 14.240516 4.174705 34.46509 3.398717
2004-10-29 07:45:27 51°28.619 2°44.847 14.240992 4.187568 34.583127 3.19646
2004-10-29 07:45:31 51°28.632 2°44.843 14.239565 4.183878 34.546331 3.263879
2004-10-29 07:45:37 51°28.653 2°44.832 14.239469 4.187779 34.58029 3.23017
2004-10-29 07:45:42 51°28.671 2°44.825 14.238042 4.186197 34.562961 3.129042
2004-10-29 07:45:47 51°28.688 2°44.817 14.234186 4.186725 34.569192 3.331298
2004-10-29 07:45:50 51°28.698 2°44.812 14.234186 4.186725 34.569192 3.331298
2004-10-29 07:45:57 51°28.722 2°44.801 14.238565 4.187252 34.573375 3.23017
2004-10-29 07:46:01 51°28.736 2°44.795 14.230092 4.189572 34.594785 3.365007
2004-10-29 07:46:07 51°28.757 2°44.785 14.233948 4.187252 34.574741 3.263879
2004-10-29 07:46:12 51°28.774 2°44.777 14.22557 4.186408 34.568321 3.331298
2004-10-29 07:46:16 51°28.788 2°44.769 14.228188 4.184616 34.555192 3.432426
2004-10-29 07:46:19 51°28.798 2°44.764 14.228188 4.184616 34.555192 3.432426
2004-10-29 07:46:26 51°28.823 2°44.752 14.225761 4.188201 34.5876 3.398717
2004-10-29 07:46:32 51°28.843 2°44.742 14.222523 4.171963 34.438436 3.466136
2004-10-29 07:46:36 51°28.856 2°44.736 14.223618 4.187885 34.587414 3.297589
2004-10-29 07:46:42 51°28.877 2°44.727 14.222095 4.185038 34.565232 3.600973
2004-10-29 07:46:47 51°28.894 2°44.72 14.22676 4.186514 34.578177 3.432426
2004-10-29 07:46:52 51°28.911 2°44.711 14.22676 4.186514 34.578177 3.432426
2004-10-29 07:46:56 51°28.925 2°44.705 14.222 4.183878 34.555891 3.297589
2004-10-29 07:47:02 51°28.945 2°44.696 14.226284 4.186725 34.582858 3.23017
2004-10-29 07:47:07 51°28.962 2°44.688 14.225951 4.183773 34.556283 3.567264
2004-10-29 07:47:12 51°28.98 2°44.681 14.23014 4.184827 34.563285 3.499845
2004-10-29 07:47:16 51°28.993 2°44.673 14.225903 4.18683 34.584515 3.297589
2004-10-29 07:47:22 51°29.014 2°44.665 14.225903 4.18683 34.584515 3.297589
2004-10-29 07:47:26 51°29.028 2°44.657 14.230806 4.183245 34.550733 3.365007
2004-10-29 07:47:32 51°29.048 2°44.648 14.229807 4.184511 34.560365 3.432426
2004-10-29 07:47:36 51°29.062 2°44.642 14.232235 4.188939 34.600567 3.600973
2004-10-29 07:47:39 51°29.073 2°44.637 14.235947 4.184827 34.561919 3.331298
2004-10-29 07:47:46 51°29.097 2°44.627 14.239422 4.186198 34.57389 3.466136
2004-10-29 07:47:52 51°29.118 2°44.618 14.239422 4.186198 34.57389 3.466136
2004-10-29 07:47:57 51°29.135 2°44.611 14.236471 4.187885 34.587414 3.398717
2004-10-29 07:48:00 51°29.145 2°44.606 14.236994 4.190099 34.606489 3.600973
2004-10-29 07:48:07 51°29.168 2°44.591 14.236947 4.189044 34.598122 3.702101
2004-10-29 07:48:15 51°29.193 2°44.576 14.242611 4.188623 34.59081 3.398717
2004-10-29 07:48:20 51°29.207 2°44.569 14.242182 4.187779 34.583023 3.567264
2004-10-29 07:48:30 51°29.234 2°44.556 14.248655 4.179977 34.508964 3.499845
2004-10-29 07:48:36 51°29.249 2°44.551 14.252319 4.191469 34.612988 3.466136
2004-10-29 07:48:42 51°29.264 2°44.548 14.252414 4.18915 34.590892 3.499845
2004-10-29 07:48:47 51°29.276 2°44.545 14.254841 4.190837 34.60373 3.297589
2004-10-29 07:48:51 51°29.286 2°44.544 14.254841 4.190837 34.60373 3.297589
2004-10-29 07:48:56 51°29.297 2°44.544 14.256221 4.191575 34.607124 3.398717
2004-10-29 07:49:02 51°29.31 2°44.544 14.260408 4.18451 34.539886 3.634683
2004-10-29 07:49:07 51°29.321 2°44.546 14.263739 4.193684 34.622484 3.80323
2004-10-29 07:49:12 51°29.332 2°44.548 14.262787 4.192207 34.606127 3.735811
2004-10-29 07:49:16 51°29.34 2°44.551 14.262549 4.190204 34.587641 3.331298
2004-10-29 07:49:22 51°29.352 2°44.556 14.262549 4.190204 34.587641 3.331298
2004-10-29 07:49:27 51°29.361 2°44.56 14.256935 4.18936 34.574396 3.668392
2004-10-29 07:49:32 51°29.371 2°44.563 14.265166 4.192418 34.60329 3.432426
2004-10-29 07:49:36 51°29.379 2°44.566 14.260598 4.192313 34.600267 3.600973
2004-10-29 07:49:42 51°29.391 2°44.569 14.270828 4.196109 34.63529 3.567264
2004-10-29 07:49:47 51°29.4 2°44.571 14.270399 4.193051 34.60776 3.263879
2004-10-29 07:49:52 51°29.409 2°44.571 14.270399 4.193051 34.60776 3.263879
2004-10-29 07:49:56 51°29.416 2°44.572 14.262264 4.19284 34.605814 3.432426
2004-10-29 07:50:02 51°29.426 2°44.573 14.262835 4.187568 34.556496 3.432426
2004-10-29 07:50:07 51°29.433 2°44.574 14.265404 4.194105 34.614755 3.499845
2004-10-29 07:50:12 51°29.439 2°44.576 14.269067 4.191469 34.589753 3.499845
2004-10-29 07:50:16 51°29.444 2°44.578 14.270542 4.195054 34.624194 3.567264
2004-10-29 07:50:22 51°29.451 2°44.582 14.270542 4.195054 34.624194 3.567264
2004-10-29 07:50:27 51°29.456 2°44.585 14.264738 4.194211 34.619145 3.735811
2004-10-29 07:50:30 51°29.459 2°44.587 14.268829 4.19653 34.639866 3.466136
2004-10-29 07:50:36 51°29.464 2°44.591 14.272778 4.19653 34.635079 3.533554
2004-10-29 07:50:42 51°29.468 2°44.596 14.273301 4.193683 34.606081 3.432426
2004-10-29 07:50:47 51°29.472 2°44.6 14.272873 4.197901 34.642939 3.567264
2004-10-29 07:50:50 51°29.473 2°44.602 14.272873 4.197901 34.642939 3.567264
2004-10-29 07:51:03 51°29.481 2°44.611 14.275395 4.194527 34.605665 3.466136
2004-10-29 07:51:08 51°29.483 2°44.614 14.275252 4.196425 34.624536 3.365007
2004-10-29 07:51:12 51°29.485 2°44.616 14.273825 4.190731 34.569295 3.76952
2004-10-29 07:51:28 51°29.492 2°44.625 14.269258 4.197268 34.62685 3.23017
2004-10-29 07:51:34 51°29.495 2°44.627 14.269258 4.197268 34.62685 3.23017